<?xml version='1.0' encoding='UTF-8'?><gpx version="1.1" creator="JPX - https://github.com/jenetics/jpx" xmlns="http://www.topografix.com/GPX/1/1"><trk><trkseg><trkpt lat="44.2861303" lon="11.8011955"><ele>77.0</ele><time>2026-04-08T10:44:04.14Z</time></trkpt><trkpt lat="44.286108" lon="11.8010447"><ele>77.0</ele><time>2026-04-08T10:44:06.122Z</time></trkpt><trkpt lat="44.2860814" lon="11.8009398"><ele>77.0</ele><time>2026-04-08T10:44:08.144Z</time></trkpt><trkpt lat="44.2860626" lon="11.8008359"><ele>77.0</ele><time>2026-04-08T10:44:10.143Z</time></trkpt><trkpt lat="44.2860465" lon="11.8007203"><ele>77.0</ele><time>2026-04-08T10:44:12.126Z</time></trkpt><trkpt lat="44.2860183" lon="11.8005794"><ele>76.5</ele><time>2026-04-08T10:44:14.149Z</time></trkpt><trkpt lat="44.2860023" lon="11.80049"><ele>76.0</ele><time>2026-04-08T10:44:15.145Z</time></trkpt><trkpt lat="44.2859781" lon="11.8003843"><ele>75.5</ele><time>2026-04-08T10:44:16.136Z</time></trkpt><trkpt lat="44.2859502" lon="11.8002629"><ele>75.0</ele><time>2026-04-08T10:44:17.147Z</time></trkpt><trkpt lat="44.2859262" lon="11.8001435"><ele>74.5</ele><time>2026-04-08T10:44:18.131Z</time></trkpt><trkpt lat="44.2859051" lon="11.8000387"><ele>74.0</ele><time>2026-04-08T10:44:19.16Z</time></trkpt><trkpt lat="44.285889" lon="11.7999478"><ele>74.0</ele><time>2026-04-08T10:44:20.138Z</time></trkpt><trkpt lat="44.2858602" lon="11.7998015"><ele>74.0</ele><time>2026-04-08T10:44:22.138Z</time></trkpt><trkpt lat="44.2858537" lon="11.7996902"><ele>74.0</ele><time>2026-04-08T10:44:24.143Z</time></trkpt><trkpt lat="44.2858785" lon="11.7995514"><ele>74.0</ele><time>2026-04-08T10:44:26.142Z</time></trkpt><trkpt lat="44.2859165" lon="11.7994748"><ele>74.0</ele><time>2026-04-08T10:44:27.144Z</time></trkpt><trkpt lat="44.2859724" lon="11.7994211"><ele>74.0</ele><time>2026-04-08T10:44:28.157Z</time></trkpt><trkpt lat="44.2860325" lon="11.7993893"><ele>74.0</ele><time>2026-04-08T10:44:29.14Z</time></trkpt><trkpt lat="44.2861377" lon="11.7993547"><ele>74.0</ele><time>2026-04-08T10:44:31.145Z</time></trkpt><trkpt lat="44.2862064" lon="11.7993124"><ele>74.0</ele><time>2026-04-08T10:44:33.159Z</time></trkpt><trkpt lat="44.2862394" lon="11.7992332"><ele>74.0</ele><time>2026-04-08T10:44:37.16Z</time></trkpt><trkpt lat="44.2862095" lon="11.7991482"><ele>74.0</ele><time>2026-04-08T10:44:40.137Z</time></trkpt><trkpt lat="44.2861113" lon="11.7990253"><ele>74.0</ele><time>2026-04-08T10:44:42.15Z</time></trkpt><trkpt lat="44.2860286" lon="11.7989425"><ele>76.25</ele><time>2026-04-08T10:44:43.159Z</time></trkpt><trkpt lat="44.285938" lon="11.7988497"><ele>78.5</ele><time>2026-04-08T10:44:44.152Z</time></trkpt><trkpt lat="44.2858411" lon="11.7987452"><ele>80.75</ele><time>2026-04-08T10:44:45.153Z</time></trkpt><trkpt lat="44.2857378" lon="11.7986375"><ele>83.0</ele><time>2026-04-08T10:44:46.157Z</time></trkpt><trkpt lat="44.2856304" lon="11.7985416"><ele>86.0</ele><time>2026-04-08T10:44:47.145Z</time></trkpt><trkpt lat="44.2855181" lon="11.7984461"><ele>89.0</ele><time>2026-04-08T10:44:48.153Z</time></trkpt><trkpt lat="44.285396" lon="11.7983484"><ele>92.0</ele><time>2026-04-08T10:44:49.171Z</time></trkpt><trkpt lat="44.2852527" lon="11.7982411"><ele>95.0</ele><time>2026-04-08T10:44:50.157Z</time></trkpt><trkpt lat="44.2851103" lon="11.7981321"><ele>95.0</ele><time>2026-04-08T10:44:51.142Z</time></trkpt><trkpt lat="44.2849858" lon="11.7980427"><ele>95.0</ele><time>2026-04-08T10:44:52.141Z</time></trkpt><trkpt lat="44.2848616" lon="11.7979581"><ele>95.0</ele><time>2026-04-08T10:44:53.18Z</time></trkpt><trkpt lat="44.2847367" lon="11.7978786"><ele>95.0</ele><time>2026-04-08T10:44:54.135Z</time></trkpt><trkpt lat="44.2846065" lon="11.7978053"><ele>99.0</ele><time>2026-04-08T10:44:55.133Z</time></trkpt><trkpt lat="44.2844758" lon="11.7977375"><ele>103.0</ele><time>2026-04-08T10:44:56.131Z</time></trkpt><trkpt lat="44.2843402" lon="11.7976658"><ele>107.0</ele><time>2026-04-08T10:44:57.154Z</time></trkpt><trkpt lat="44.2842077" lon="11.7975867"><ele>111.0</ele><time>2026-04-08T10:44:58.149Z</time></trkpt><trkpt lat="44.2840806" lon="11.7975066"><ele>111.25</ele><time>2026-04-08T10:44:59.16Z</time></trkpt><trkpt lat="44.2839596" lon="11.7974291"><ele>111.5</ele><time>2026-04-08T10:45:00.154Z</time></trkpt><trkpt lat="44.2838509" lon="11.7973553"><ele>111.75</ele><time>2026-04-08T10:45:01.135Z</time></trkpt><trkpt lat="44.2837577" lon="11.7972885"><ele>112.0</ele><time>2026-04-08T10:45:02.141Z</time></trkpt><trkpt lat="44.2836584" lon="11.7972375"><ele>115.66666666666667</ele><time>2026-04-08T10:45:03.137Z</time></trkpt><trkpt lat="44.2835493" lon="11.7971977"><ele>119.33333333333334</ele><time>2026-04-08T10:45:04.142Z</time></trkpt><trkpt lat="44.2833343" lon="11.7970837"><ele>123.0</ele><time>2026-04-08T10:45:06.135Z</time></trkpt><trkpt lat="44.2832185" lon="11.7969938"><ele>124.0</ele><time>2026-04-08T10:45:07.148Z</time></trkpt><trkpt lat="44.283092" lon="11.7968829"><ele>125.0</ele><time>2026-04-08T10:45:08.131Z</time></trkpt><trkpt lat="44.2829566" lon="11.7967535"><ele>126.0</ele><time>2026-04-08T10:45:09.138Z</time></trkpt><trkpt lat="44.2828272" lon="11.7966179"><ele>126.75</ele><time>2026-04-08T10:45:10.141Z</time></trkpt><trkpt lat="44.2827008" lon="11.796492"><ele>127.5</ele><time>2026-04-08T10:45:11.144Z</time></trkpt><trkpt lat="44.2825804" lon="11.7963779"><ele>128.25</ele><time>2026-04-08T10:45:12.136Z</time></trkpt><trkpt lat="44.2824594" lon="11.7962651"><ele>129.0</ele><time>2026-04-08T10:45:13.137Z</time></trkpt><trkpt lat="44.2823463" lon="11.7961534"><ele>131.4</ele><time>2026-04-08T10:45:14.13Z</time></trkpt><trkpt lat="44.2822493" lon="11.7960524"><ele>133.8</ele><time>2026-04-08T10:45:15.144Z</time></trkpt><trkpt lat="44.2821667" lon="11.795964"><ele>136.2</ele><time>2026-04-08T10:45:16.145Z</time></trkpt><trkpt lat="44.2820924" lon="11.795883"><ele>138.6</ele><time>2026-04-08T10:45:17.151Z</time></trkpt><trkpt lat="44.282017" lon="11.7958008"><ele>141.0</ele><time>2026-04-08T10:45:18.144Z</time></trkpt><trkpt lat="44.2819459" lon="11.7957028"><ele>142.25</ele><time>2026-04-08T10:45:19.139Z</time></trkpt><trkpt lat="44.2818834" lon="11.7955821"><ele>143.5</ele><time>2026-04-08T10:45:20.15Z</time></trkpt><trkpt lat="44.2818252" lon="11.7954405"><ele>144.75</ele><time>2026-04-08T10:45:21.156Z</time></trkpt><trkpt lat="44.281764" lon="11.7952843"><ele>146.0</ele><time>2026-04-08T10:45:22.144Z</time></trkpt><trkpt lat="44.2816984" lon="11.7951119"><ele>146.0</ele><time>2026-04-08T10:45:23.148Z</time></trkpt><trkpt lat="44.2816456" lon="11.7949343"><ele>146.0</ele><time>2026-04-08T10:45:24.143Z</time></trkpt><trkpt lat="44.2816107" lon="11.7947706"><ele>146.0</ele><time>2026-04-08T10:45:25.156Z</time></trkpt><trkpt lat="44.2816004" lon="11.7946324"><ele>146.0</ele><time>2026-04-08T10:45:26.137Z</time></trkpt><trkpt lat="44.2816012" lon="11.7945106"><ele>146.0</ele><time>2026-04-08T10:45:27.14Z</time></trkpt><trkpt lat="44.2815935" lon="11.7944066"><ele>146.0</ele><time>2026-04-08T10:45:28.131Z</time></trkpt><trkpt lat="44.2815661" lon="11.7942908"><ele>146.0</ele><time>2026-04-08T10:45:29.144Z</time></trkpt><trkpt lat="44.2815136" lon="11.7941485"><ele>146.0</ele><time>2026-04-08T10:45:30.149Z</time></trkpt><trkpt lat="44.2814398" lon="11.7940024"><ele>146.0</ele><time>2026-04-08T10:45:31.145Z</time></trkpt><trkpt lat="44.2813551" lon="11.7938531"><ele>150.4</ele><time>2026-04-08T10:45:32.141Z</time></trkpt><trkpt lat="44.2812748" lon="11.7937147"><ele>154.8</ele><time>2026-04-08T10:45:33.155Z</time></trkpt><trkpt lat="44.2812071" lon="11.7936048"><ele>159.20000000000002</ele><time>2026-04-08T10:45:34.143Z</time></trkpt><trkpt lat="44.2811583" lon="11.7935194"><ele>163.6</ele><time>2026-04-08T10:45:35.149Z</time></trkpt><trkpt lat="44.2810818" lon="11.7933903"><ele>168.0</ele><time>2026-04-08T10:45:37.149Z</time></trkpt><trkpt lat="44.2810275" lon="11.7933296"><ele>168.0</ele><time>2026-04-08T10:45:38.141Z</time></trkpt><trkpt lat="44.2809618" lon="11.7932706"><ele>168.0</ele><time>2026-04-08T10:45:39.136Z</time></trkpt><trkpt lat="44.2808974" lon="11.7932231"><ele>168.0</ele><time>2026-04-08T10:45:40.135Z</time></trkpt><trkpt lat="44.2808398" lon="11.7931817"><ele>168.0</ele><time>2026-04-08T10:45:41.14Z</time></trkpt><trkpt lat="44.2807331" lon="11.7931141"><ele>168.0</ele><time>2026-04-08T10:45:43.133Z</time></trkpt><trkpt lat="44.2806748" lon="11.7930798"><ele>168.0</ele><time>2026-04-08T10:45:44.137Z</time></trkpt><trkpt lat="44.2806161" lon="11.7930376"><ele>170.66666666666666</ele><time>2026-04-08T10:45:45.143Z</time></trkpt><trkpt lat="44.2805556" lon="11.7930025"><ele>173.33333333333334</ele><time>2026-04-08T10:45:46.137Z</time></trkpt><trkpt lat="44.2804785" lon="11.7929679"><ele>176.0</ele><time>2026-04-08T10:45:47.17Z</time></trkpt><trkpt lat="44.2804061" lon="11.7929274"><ele>178.66666666666669</ele><time>2026-04-08T10:45:48.156Z</time></trkpt><trkpt lat="44.2803357" lon="11.7928809"><ele>181.33333333333334</ele><time>2026-04-08T10:45:49.165Z</time></trkpt><trkpt lat="44.2802557" lon="11.7928209"><ele>184.0</ele><time>2026-04-08T10:45:50.156Z</time></trkpt><trkpt lat="44.2801623" lon="11.7927435"><ele>184.5</ele><time>2026-04-08T10:45:51.152Z</time></trkpt><trkpt lat="44.2800586" lon="11.7926711"><ele>185.0</ele><time>2026-04-08T10:45:52.148Z</time></trkpt><trkpt lat="44.2799656" lon="11.7925911"><ele>185.5</ele><time>2026-04-08T10:45:53.139Z</time></trkpt><trkpt lat="44.2798624" lon="11.7925118"><ele>186.0</ele><time>2026-04-08T10:45:54.131Z</time></trkpt><trkpt lat="44.2797399" lon="11.7924184"><ele>186.0</ele><time>2026-04-08T10:45:55.133Z</time></trkpt><trkpt lat="44.2796197" lon="11.7923366"><ele>186.0</ele><time>2026-04-08T10:45:56.168Z</time></trkpt><trkpt lat="44.2795161" lon="11.7922671"><ele>186.0</ele><time>2026-04-08T10:45:57.161Z</time></trkpt><trkpt lat="44.2794168" lon="11.7921937"><ele>186.0</ele><time>2026-04-08T10:45:58.164Z</time></trkpt><trkpt lat="44.2793202" lon="11.7921239"><ele>186.0</ele><time>2026-04-08T10:45:59.169Z</time></trkpt><trkpt lat="44.2792168" lon="11.7920342"><ele>186.0</ele><time>2026-04-08T10:46:00.162Z</time></trkpt><trkpt lat="44.2791154" lon="11.7919359"><ele>186.0</ele><time>2026-04-08T10:46:01.141Z</time></trkpt><trkpt lat="44.2790136" lon="11.791837"><ele>186.0</ele><time>2026-04-08T10:46:02.157Z</time></trkpt><trkpt lat="44.2789203" lon="11.791746"><ele>187.20000000000002</ele><time>2026-04-08T10:46:03.17Z</time></trkpt><trkpt lat="44.2788436" lon="11.7916618"><ele>188.4</ele><time>2026-04-08T10:46:04.159Z</time></trkpt><trkpt lat="44.2787728" lon="11.7915907"><ele>189.6</ele><time>2026-04-08T10:46:05.137Z</time></trkpt><trkpt lat="44.2787056" lon="11.7915269"><ele>190.8</ele><time>2026-04-08T10:46:06.142Z</time></trkpt><trkpt lat="44.2786345" lon="11.7914538"><ele>192.0</ele><time>2026-04-08T10:46:07.16Z</time></trkpt><trkpt lat="44.2785445" lon="11.7913678"><ele>192.0</ele><time>2026-04-08T10:46:08.144Z</time></trkpt><trkpt lat="44.2784424" lon="11.7912653"><ele>192.0</ele><time>2026-04-08T10:46:09.179Z</time></trkpt><trkpt lat="44.2783259" lon="11.7911376"><ele>192.0</ele><time>2026-04-08T10:46:10.14Z</time></trkpt><trkpt lat="44.2782249" lon="11.7910103"><ele>192.0</ele><time>2026-04-08T10:46:11.156Z</time></trkpt><trkpt lat="44.2781412" lon="11.7908939"><ele>193.0</ele><time>2026-04-08T10:46:12.16Z</time></trkpt><trkpt lat="44.2780556" lon="11.7907965"><ele>194.0</ele><time>2026-04-08T10:46:13.159Z</time></trkpt><trkpt lat="44.2779689" lon="11.7906933"><ele>195.0</ele><time>2026-04-08T10:46:14.159Z</time></trkpt><trkpt lat="44.2778796" lon="11.7905999"><ele>196.0</ele><time>2026-04-08T10:46:15.167Z</time></trkpt><trkpt lat="44.2777998" lon="11.7905287"><ele>197.0</ele><time>2026-04-08T10:46:16.154Z</time></trkpt><trkpt lat="44.2777122" lon="11.7904748"><ele>197.0</ele><time>2026-04-08T10:46:17.159Z</time></trkpt><trkpt lat="44.2776127" lon="11.7904245"><ele>197.0</ele><time>2026-04-08T10:46:18.148Z</time></trkpt><trkpt lat="44.2775015" lon="11.7903759"><ele>197.0</ele><time>2026-04-08T10:46:19.165Z</time></trkpt><trkpt lat="44.2773804" lon="11.7903263"><ele>197.0</ele><time>2026-04-08T10:46:20.155Z</time></trkpt><trkpt lat="44.2772608" lon="11.7902769"><ele>196.2</ele><time>2026-04-08T10:46:21.156Z</time></trkpt><trkpt lat="44.2771456" lon="11.7902347"><ele>195.39999999999998</ele><time>2026-04-08T10:46:22.155Z</time></trkpt><trkpt lat="44.2770427" lon="11.7901952"><ele>194.60000000000002</ele><time>2026-04-08T10:46:23.16Z</time></trkpt><trkpt lat="44.2769502" lon="11.7901404"><ele>193.8</ele><time>2026-04-08T10:46:24.165Z</time></trkpt><trkpt lat="44.2768668" lon="11.7900759"><ele>193.0</ele><time>2026-04-08T10:46:25.176Z</time></trkpt><trkpt lat="44.2767872" lon="11.7900053"><ele>192.49999999999997</ele><time>2026-04-08T10:46:26.145Z</time></trkpt><trkpt lat="44.2767145" lon="11.789932"><ele>192.0</ele><time>2026-04-08T10:46:27.174Z</time></trkpt><trkpt lat="44.2766482" lon="11.7898583"><ele>191.5</ele><time>2026-04-08T10:46:28.164Z</time></trkpt><trkpt lat="44.2765845" lon="11.789777"><ele>191.0</ele><time>2026-04-08T10:46:29.168Z</time></trkpt><trkpt lat="44.2765218" lon="11.789689"><ele>190.5</ele><time>2026-04-08T10:46:30.157Z</time></trkpt><trkpt lat="44.2764543" lon="11.7896008"><ele>190.0</ele><time>2026-04-08T10:46:31.152Z</time></trkpt><trkpt lat="44.2763821" lon="11.7895141"><ele>190.0</ele><time>2026-04-08T10:46:32.165Z</time></trkpt><trkpt lat="44.2763153" lon="11.7894232"><ele>190.0</ele><time>2026-04-08T10:46:33.138Z</time></trkpt><trkpt lat="44.2762495" lon="11.789334"><ele>190.0</ele><time>2026-04-08T10:46:34.159Z</time></trkpt><trkpt lat="44.2761836" lon="11.7892449"><ele>190.0</ele><time>2026-04-08T10:46:35.175Z</time></trkpt><trkpt lat="44.2761139" lon="11.7891543"><ele>190.0</ele><time>2026-04-08T10:46:36.156Z</time></trkpt><trkpt lat="44.2760475" lon="11.7890614"><ele>190.0</ele><time>2026-04-08T10:46:37.172Z</time></trkpt><trkpt lat="44.2759793" lon="11.7889679"><ele>190.0</ele><time>2026-04-08T10:46:38.144Z</time></trkpt><trkpt lat="44.2759054" lon="11.7888741"><ele>190.0</ele><time>2026-04-08T10:46:39.156Z</time></trkpt><trkpt lat="44.2758368" lon="11.7887747"><ele>190.0</ele><time>2026-04-08T10:46:40.152Z</time></trkpt><trkpt lat="44.2757659" lon="11.7886756"><ele>190.0</ele><time>2026-04-08T10:46:41.164Z</time></trkpt><trkpt lat="44.2756923" lon="11.78858"><ele>189.8</ele><time>2026-04-08T10:46:42.141Z</time></trkpt><trkpt lat="44.275624" lon="11.7884854"><ele>189.6</ele><time>2026-04-08T10:46:43.149Z</time></trkpt><trkpt lat="44.2755548" lon="11.7883898"><ele>189.39999999999998</ele><time>2026-04-08T10:46:44.156Z</time></trkpt><trkpt lat="44.2754846" lon="11.7882941"><ele>189.2</ele><time>2026-04-08T10:46:45.158Z</time></trkpt><trkpt lat="44.2754151" lon="11.7882033"><ele>189.0</ele><time>2026-04-08T10:46:46.165Z</time></trkpt><trkpt lat="44.2753454" lon="11.7881132"><ele>189.6</ele><time>2026-04-08T10:46:47.155Z</time></trkpt><trkpt lat="44.27527" lon="11.7880208"><ele>190.2</ele><time>2026-04-08T10:46:48.153Z</time></trkpt><trkpt lat="44.2751986" lon="11.7879282"><ele>190.79999999999998</ele><time>2026-04-08T10:46:49.183Z</time></trkpt><trkpt lat="44.2751287" lon="11.7878326"><ele>191.39999999999998</ele><time>2026-04-08T10:46:50.158Z</time></trkpt><trkpt lat="44.2750577" lon="11.7877448"><ele>192.0</ele><time>2026-04-08T10:46:51.144Z</time></trkpt><trkpt lat="44.2749905" lon="11.787658"><ele>192.33333333333334</ele><time>2026-04-08T10:46:52.166Z</time></trkpt><trkpt lat="44.2749227" lon="11.78758"><ele>192.66666666666669</ele><time>2026-04-08T10:46:53.152Z</time></trkpt><trkpt lat="44.2748576" lon="11.787504"><ele>193.0</ele><time>2026-04-08T10:46:54.13Z</time></trkpt><trkpt lat="44.2747987" lon="11.7874295"><ele>193.33333333333334</ele><time>2026-04-08T10:46:55.161Z</time></trkpt><trkpt lat="44.2747441" lon="11.7873533"><ele>193.66666666666669</ele><time>2026-04-08T10:46:56.141Z</time></trkpt><trkpt lat="44.2746845" lon="11.7872687"><ele>194.0</ele><time>2026-04-08T10:46:57.163Z</time></trkpt><trkpt lat="44.2746245" lon="11.7871788"><ele>194.33333333333334</ele><time>2026-04-08T10:46:58.158Z</time></trkpt><trkpt lat="44.2745632" lon="11.7870943"><ele>194.66666666666669</ele><time>2026-04-08T10:46:59.161Z</time></trkpt><trkpt lat="44.2745037" lon="11.7870072"><ele>195.0</ele><time>2026-04-08T10:47:00.156Z</time></trkpt><trkpt lat="44.2744467" lon="11.7869218"><ele>195.33333333333331</ele><time>2026-04-08T10:47:01.166Z</time></trkpt><trkpt lat="44.274382" lon="11.7868345"><ele>195.66666666666666</ele><time>2026-04-08T10:47:02.158Z</time></trkpt><trkpt lat="44.2743219" lon="11.7867575"><ele>196.0</ele><time>2026-04-08T10:47:03.166Z</time></trkpt><trkpt lat="44.2742581" lon="11.7866915"><ele>196.33333333333331</ele><time>2026-04-08T10:47:04.163Z</time></trkpt><trkpt lat="44.2741978" lon="11.7866284"><ele>196.66666666666666</ele><time>2026-04-08T10:47:05.139Z</time></trkpt><trkpt lat="44.2741352" lon="11.7865701"><ele>197.0</ele><time>2026-04-08T10:47:06.139Z</time></trkpt><trkpt lat="44.2740672" lon="11.7865059"><ele>197.33333333333331</ele><time>2026-04-08T10:47:07.158Z</time></trkpt><trkpt lat="44.2740041" lon="11.7864412"><ele>197.66666666666666</ele><time>2026-04-08T10:47:08.164Z</time></trkpt><trkpt lat="44.2739493" lon="11.7863767"><ele>198.0</ele><time>2026-04-08T10:47:09.172Z</time></trkpt><trkpt lat="44.2738935" lon="11.7863036"><ele>198.0</ele><time>2026-04-08T10:47:10.163Z</time></trkpt><trkpt lat="44.2738396" lon="11.786223"><ele>198.0</ele><time>2026-04-08T10:47:11.159Z</time></trkpt><trkpt lat="44.2737892" lon="11.7861404"><ele>198.0</ele><time>2026-04-08T10:47:12.16Z</time></trkpt><trkpt lat="44.2737459" lon="11.786067"><ele>198.0</ele><time>2026-04-08T10:47:13.185Z</time></trkpt><trkpt lat="44.2737075" lon="11.7859955"><ele>198.0</ele><time>2026-04-08T10:47:14.153Z</time></trkpt><trkpt lat="44.2736627" lon="11.785922"><ele>198.0</ele><time>2026-04-08T10:47:15.162Z</time></trkpt><trkpt lat="44.2736175" lon="11.7858417"><ele>198.0</ele><time>2026-04-08T10:47:16.152Z</time></trkpt><trkpt lat="44.2735708" lon="11.7857614"><ele>198.85714285714286</ele><time>2026-04-08T10:47:17.14Z</time></trkpt><trkpt lat="44.2735232" lon="11.7856794"><ele>199.7142857142857</ele><time>2026-04-08T10:47:18.154Z</time></trkpt><trkpt lat="44.2734799" lon="11.7856026"><ele>200.57142857142856</ele><time>2026-04-08T10:47:19.151Z</time></trkpt><trkpt lat="44.2734374" lon="11.7855254"><ele>201.42857142857144</ele><time>2026-04-08T10:47:20.169Z</time></trkpt><trkpt lat="44.2733936" lon="11.7854473"><ele>202.28571428571428</ele><time>2026-04-08T10:47:21.153Z</time></trkpt><trkpt lat="44.2733532" lon="11.7853698"><ele>203.14285714285714</ele><time>2026-04-08T10:47:22.159Z</time></trkpt><trkpt lat="44.2733145" lon="11.7852978"><ele>204.0</ele><time>2026-04-08T10:47:23.155Z</time></trkpt><trkpt lat="44.2732716" lon="11.7852258"><ele>202.83333333333334</ele><time>2026-04-08T10:47:24.157Z</time></trkpt><trkpt lat="44.2732307" lon="11.7851502"><ele>201.66666666666669</ele><time>2026-04-08T10:47:25.157Z</time></trkpt><trkpt lat="44.2731842" lon="11.7850672"><ele>200.5</ele><time>2026-04-08T10:47:26.164Z</time></trkpt><trkpt lat="44.2731253" lon="11.7849684"><ele>199.33333333333334</ele><time>2026-04-08T10:47:27.16Z</time></trkpt><trkpt lat="44.2730639" lon="11.7848685"><ele>198.16666666666669</ele><time>2026-04-08T10:47:28.15Z</time></trkpt><trkpt lat="44.2730041" lon="11.7847777"><ele>197.0</ele><time>2026-04-08T10:47:29.16Z</time></trkpt><trkpt lat="44.2729569" lon="11.7846926"><ele>196.6</ele><time>2026-04-08T10:47:30.159Z</time></trkpt><trkpt lat="44.2729185" lon="11.7846124"><ele>196.2</ele><time>2026-04-08T10:47:31.136Z</time></trkpt><trkpt lat="44.2728732" lon="11.7845361"><ele>195.8</ele><time>2026-04-08T10:47:32.16Z</time></trkpt><trkpt lat="44.2727959" lon="11.7844032"><ele>195.4</ele><time>2026-04-08T10:47:34.172Z</time></trkpt><trkpt lat="44.2727179" lon="11.7842783"><ele>195.0</ele><time>2026-04-08T10:47:36.155Z</time></trkpt><trkpt lat="44.2726362" lon="11.7841564"><ele>196.16666666666666</ele><time>2026-04-08T10:47:38.153Z</time></trkpt><trkpt lat="44.272554" lon="11.7840325"><ele>197.33333333333331</ele><time>2026-04-08T10:47:40.165Z</time></trkpt><trkpt lat="44.2725118" lon="11.7839616"><ele>198.5</ele><time>2026-04-08T10:47:41.16Z</time></trkpt><trkpt lat="44.2724732" lon="11.7838819"><ele>199.66666666666666</ele><time>2026-04-08T10:47:42.162Z</time></trkpt><trkpt lat="44.2724368" lon="11.7838017"><ele>200.83333333333331</ele><time>2026-04-08T10:47:43.152Z</time></trkpt><trkpt lat="44.2723985" lon="11.7837223"><ele>202.0</ele><time>2026-04-08T10:47:44.156Z</time></trkpt><trkpt lat="44.2723576" lon="11.7836428"><ele>201.99999999999997</ele><time>2026-04-08T10:47:45.165Z</time></trkpt><trkpt lat="44.2723086" lon="11.7835594"><ele>202.0</ele><time>2026-04-08T10:47:46.149Z</time></trkpt><trkpt lat="44.2722534" lon="11.7834593"><ele>202.0</ele><time>2026-04-08T10:47:47.153Z</time></trkpt><trkpt lat="44.2721955" lon="11.7833599"><ele>202.0</ele><time>2026-04-08T10:47:48.164Z</time></trkpt><trkpt lat="44.2721447" lon="11.7832769"><ele>201.99999999999997</ele><time>2026-04-08T10:47:49.138Z</time></trkpt><trkpt lat="44.2720971" lon="11.783198"><ele>202.0</ele><time>2026-04-08T10:47:50.138Z</time></trkpt><trkpt lat="44.2720552" lon="11.7831152"><ele>202.39999999999998</ele><time>2026-04-08T10:47:51.161Z</time></trkpt><trkpt lat="44.272021" lon="11.7830355"><ele>202.79999999999998</ele><time>2026-04-08T10:47:52.151Z</time></trkpt><trkpt lat="44.27194" lon="11.7828975"><ele>203.2</ele><time>2026-04-08T10:47:54.144Z</time></trkpt><trkpt lat="44.2718726" lon="11.7827657"><ele>203.6</ele><time>2026-04-08T10:47:56.15Z</time></trkpt><trkpt lat="44.2718006" lon="11.7826519"><ele>204.0</ele><time>2026-04-08T10:47:58.149Z</time></trkpt><trkpt lat="44.2717376" lon="11.7825372"><ele>203.79999999999998</ele><time>2026-04-08T10:48:00.147Z</time></trkpt><trkpt lat="44.2716639" lon="11.7824187"><ele>203.6</ele><time>2026-04-08T10:48:02.137Z</time></trkpt><trkpt lat="44.271585" lon="11.7823032"><ele>203.4</ele><time>2026-04-08T10:48:04.141Z</time></trkpt><trkpt lat="44.271478" lon="11.7822089"><ele>203.2</ele><time>2026-04-08T10:48:06.157Z</time></trkpt><trkpt lat="44.2714122" lon="11.7821629"><ele>203.0</ele><time>2026-04-08T10:48:07.149Z</time></trkpt><trkpt lat="44.2713445" lon="11.7821099"><ele>203.00000000000003</ele><time>2026-04-08T10:48:08.152Z</time></trkpt><trkpt lat="44.2712748" lon="11.7820613"><ele>203.0</ele><time>2026-04-08T10:48:09.163Z</time></trkpt><trkpt lat="44.2712154" lon="11.7820137"><ele>203.0</ele><time>2026-04-08T10:48:10.148Z</time></trkpt><trkpt lat="44.2711575" lon="11.7819661"><ele>203.0</ele><time>2026-04-08T10:48:11.159Z</time></trkpt><trkpt lat="44.2710977" lon="11.7819202"><ele>203.00000000000003</ele><time>2026-04-08T10:48:12.178Z</time></trkpt><trkpt lat="44.2709935" lon="11.7818162"><ele>203.0</ele><time>2026-04-08T10:48:14.158Z</time></trkpt><trkpt lat="44.2709368" lon="11.7817657"><ele>202.28571428571428</ele><time>2026-04-08T10:48:15.154Z</time></trkpt><trkpt lat="44.2708849" lon="11.7817095"><ele>201.57142857142856</ele><time>2026-04-08T10:48:16.164Z</time></trkpt><trkpt lat="44.2708326" lon="11.781653"><ele>200.85714285714286</ele><time>2026-04-08T10:48:17.155Z</time></trkpt><trkpt lat="44.2707797" lon="11.7815969"><ele>200.14285714285714</ele><time>2026-04-08T10:48:18.163Z</time></trkpt><trkpt lat="44.2707272" lon="11.7815338"><ele>199.42857142857142</ele><time>2026-04-08T10:48:19.156Z</time></trkpt><trkpt lat="44.2706716" lon="11.7814608"><ele>198.71428571428572</ele><time>2026-04-08T10:48:20.163Z</time></trkpt><trkpt lat="44.2706191" lon="11.7813772"><ele>198.0</ele><time>2026-04-08T10:48:21.16Z</time></trkpt><trkpt lat="44.2705716" lon="11.7812942"><ele>198.0</ele><time>2026-04-08T10:48:22.156Z</time></trkpt><trkpt lat="44.2705262" lon="11.7812155"><ele>198.0</ele><time>2026-04-08T10:48:23.165Z</time></trkpt><trkpt lat="44.2704809" lon="11.7811414"><ele>198.0</ele><time>2026-04-08T10:48:24.154Z</time></trkpt><trkpt lat="44.2704354" lon="11.7810686"><ele>198.0</ele><time>2026-04-08T10:48:25.155Z</time></trkpt><trkpt lat="44.2703918" lon="11.7809966"><ele>198.0</ele><time>2026-04-08T10:48:26.153Z</time></trkpt><trkpt lat="44.2703456" lon="11.7809194"><ele>198.0</ele><time>2026-04-08T10:48:27.158Z</time></trkpt><trkpt lat="44.2702938" lon="11.7808388"><ele>198.0</ele><time>2026-04-08T10:48:28.136Z</time></trkpt><trkpt lat="44.2702327" lon="11.780748"><ele>200.14285714285714</ele><time>2026-04-08T10:48:29.16Z</time></trkpt><trkpt lat="44.270178" lon="11.7806595"><ele>202.28571428571428</ele><time>2026-04-08T10:48:30.155Z</time></trkpt><trkpt lat="44.2701301" lon="11.7805813"><ele>204.42857142857142</ele><time>2026-04-08T10:48:31.149Z</time></trkpt><trkpt lat="44.2700883" lon="11.7805154"><ele>206.57142857142856</ele><time>2026-04-08T10:48:32.15Z</time></trkpt><trkpt lat="44.2700299" lon="11.7804159"><ele>208.71428571428572</ele><time>2026-04-08T10:48:34.164Z</time></trkpt><trkpt lat="44.2699851" lon="11.7803537"><ele>210.85714285714283</ele><time>2026-04-08T10:48:36.16Z</time></trkpt><trkpt lat="44.2699258" lon="11.7802985"><ele>213.0</ele><time>2026-04-08T10:48:38.152Z</time></trkpt><trkpt lat="44.2698363" lon="11.7802342"><ele>213.0</ele><time>2026-04-08T10:48:40.151Z</time></trkpt><trkpt lat="44.2697383" lon="11.7801714"><ele>213.0</ele><time>2026-04-08T10:48:42.157Z</time></trkpt><trkpt lat="44.2696217" lon="11.7801126"><ele>213.0</ele><time>2026-04-08T10:48:44.15Z</time></trkpt><trkpt lat="44.2695588" lon="11.7800741"><ele>213.0</ele><time>2026-04-08T10:48:45.152Z</time></trkpt><trkpt lat="44.2694923" lon="11.780039"><ele>213.0</ele><time>2026-04-08T10:48:46.162Z</time></trkpt><trkpt lat="44.2694209" lon="11.7800041"><ele>213.0</ele><time>2026-04-08T10:48:47.163Z</time></trkpt><trkpt lat="44.2693523" lon="11.7799619"><ele>213.0</ele><time>2026-04-08T10:48:48.171Z</time></trkpt><trkpt lat="44.2692808" lon="11.7799169"><ele>213.0</ele><time>2026-04-08T10:48:49.171Z</time></trkpt><trkpt lat="44.2692028" lon="11.7798727"><ele>213.0</ele><time>2026-04-08T10:48:50.168Z</time></trkpt><trkpt lat="44.2691177" lon="11.7798152"><ele>213.0</ele><time>2026-04-08T10:48:51.136Z</time></trkpt><trkpt lat="44.2690373" lon="11.7797639"><ele>213.0</ele><time>2026-04-08T10:48:52.156Z</time></trkpt><trkpt lat="44.2689588" lon="11.7797122"><ele>213.0</ele><time>2026-04-08T10:48:53.16Z</time></trkpt><trkpt lat="44.2688807" lon="11.7796701"><ele>211.33333333333334</ele><time>2026-04-08T10:48:54.166Z</time></trkpt><trkpt lat="44.2688009" lon="11.7796231"><ele>209.66666666666669</ele><time>2026-04-08T10:48:55.15Z</time></trkpt><trkpt lat="44.2687232" lon="11.7795779"><ele>208.0</ele><time>2026-04-08T10:48:56.153Z</time></trkpt><trkpt lat="44.2686469" lon="11.7795345"><ele>206.33333333333334</ele><time>2026-04-08T10:48:57.154Z</time></trkpt><trkpt lat="44.268575" lon="11.7794903"><ele>204.66666666666669</ele><time>2026-04-08T10:48:58.16Z</time></trkpt><trkpt lat="44.2685025" lon="11.7794459"><ele>203.0</ele><time>2026-04-08T10:48:59.158Z</time></trkpt><trkpt lat="44.2684255" lon="11.7794002"><ele>203.00000000000003</ele><time>2026-04-08T10:49:00.153Z</time></trkpt><trkpt lat="44.2683501" lon="11.7793541"><ele>203.0</ele><time>2026-04-08T10:49:01.135Z</time></trkpt><trkpt lat="44.2682834" lon="11.7793109"><ele>203.0</ele><time>2026-04-08T10:49:02.144Z</time></trkpt><trkpt lat="44.2682208" lon="11.7792737"><ele>203.0</ele><time>2026-04-08T10:49:03.159Z</time></trkpt><trkpt lat="44.2681537" lon="11.7792345"><ele>203.00000000000003</ele><time>2026-04-08T10:49:04.147Z</time></trkpt><trkpt lat="44.2680775" lon="11.779191"><ele>203.0</ele><time>2026-04-08T10:49:05.171Z</time></trkpt><trkpt lat="44.268003" lon="11.7791474"><ele>204.85714285714286</ele><time>2026-04-08T10:49:06.151Z</time></trkpt><trkpt lat="44.267933" lon="11.779105"><ele>206.71428571428572</ele><time>2026-04-08T10:49:07.16Z</time></trkpt><trkpt lat="44.2678628" lon="11.7790693"><ele>208.57142857142856</ele><time>2026-04-08T10:49:08.154Z</time></trkpt><trkpt lat="44.2677933" lon="11.7790446"><ele>210.42857142857144</ele><time>2026-04-08T10:49:09.16Z</time></trkpt><trkpt lat="44.2677261" lon="11.7790226"><ele>212.28571428571428</ele><time>2026-04-08T10:49:10.157Z</time></trkpt><trkpt lat="44.2676539" lon="11.7790037"><ele>214.14285714285714</ele><time>2026-04-08T10:49:11.161Z</time></trkpt><trkpt lat="44.2675738" lon="11.7789733"><ele>216.0</ele><time>2026-04-08T10:49:12.155Z</time></trkpt><trkpt lat="44.267492" lon="11.7789332"><ele>216.0</ele><time>2026-04-08T10:49:13.154Z</time></trkpt><trkpt lat="44.2674221" lon="11.7788841"><ele>216.0</ele><time>2026-04-08T10:49:14.142Z</time></trkpt><trkpt lat="44.2673641" lon="11.7788366"><ele>216.0</ele><time>2026-04-08T10:49:15.147Z</time></trkpt><trkpt lat="44.2673088" lon="11.7787849"><ele>216.0</ele><time>2026-04-08T10:49:16.152Z</time></trkpt><trkpt lat="44.2672504" lon="11.7787359"><ele>216.0</ele><time>2026-04-08T10:49:17.156Z</time></trkpt><trkpt lat="44.2671912" lon="11.778687"><ele>216.0</ele><time>2026-04-08T10:49:18.14Z</time></trkpt><trkpt lat="44.2671322" lon="11.7786323"><ele>216.0</ele><time>2026-04-08T10:49:19.148Z</time></trkpt><trkpt lat="44.267074" lon="11.7785764"><ele>216.83333333333334</ele><time>2026-04-08T10:49:20.156Z</time></trkpt><trkpt lat="44.2670158" lon="11.7785195"><ele>217.66666666666669</ele><time>2026-04-08T10:49:21.149Z</time></trkpt><trkpt lat="44.2669553" lon="11.778455"><ele>218.5</ele><time>2026-04-08T10:49:22.162Z</time></trkpt><trkpt lat="44.2668933" lon="11.778385"><ele>219.33333333333334</ele><time>2026-04-08T10:49:23.15Z</time></trkpt><trkpt lat="44.2668317" lon="11.778314"><ele>220.16666666666669</ele><time>2026-04-08T10:49:24.157Z</time></trkpt><trkpt lat="44.2667692" lon="11.7782427"><ele>221.0</ele><time>2026-04-08T10:49:25.156Z</time></trkpt><trkpt lat="44.266709" lon="11.7781709"><ele>221.00000000000003</ele><time>2026-04-08T10:49:26.175Z</time></trkpt><trkpt lat="44.2666545" lon="11.7780983"><ele>221.0</ele><time>2026-04-08T10:49:27.151Z</time></trkpt><trkpt lat="44.2666015" lon="11.7780355"><ele>221.0</ele><time>2026-04-08T10:49:28.153Z</time></trkpt><trkpt lat="44.2665097" lon="11.7779401"><ele>221.0</ele><time>2026-04-08T10:49:30.17Z</time></trkpt><trkpt lat="44.2664377" lon="11.7778576"><ele>221.00000000000003</ele><time>2026-04-08T10:49:32.145Z</time></trkpt><trkpt lat="44.2663738" lon="11.7777873"><ele>221.0</ele><time>2026-04-08T10:49:34.149Z</time></trkpt><trkpt lat="44.2663024" lon="11.7777189"><ele>219.83333333333334</ele><time>2026-04-08T10:49:37.163Z</time></trkpt><trkpt lat="44.2662321" lon="11.7776617"><ele>218.66666666666669</ele><time>2026-04-08T10:49:40.149Z</time></trkpt><trkpt lat="44.2661664" lon="11.7776159"><ele>217.5</ele><time>2026-04-08T10:49:42.14Z</time></trkpt><trkpt lat="44.2660897" lon="11.777576"><ele>216.33333333333331</ele><time>2026-04-08T10:49:44.167Z</time></trkpt><trkpt lat="44.2660036" lon="11.7775614"><ele>215.16666666666666</ele><time>2026-04-08T10:49:46.149Z</time></trkpt><trkpt lat="44.2659205" lon="11.7775442"><ele>214.0</ele><time>2026-04-08T10:49:48.158Z</time></trkpt><trkpt lat="44.2658432" lon="11.7775278"><ele>214.0</ele><time>2026-04-08T10:49:50.145Z</time></trkpt><trkpt lat="44.2657658" lon="11.7775082"><ele>213.99999999999997</ele><time>2026-04-08T10:49:52.152Z</time></trkpt><trkpt lat="44.2656857" lon="11.7775226"><ele>213.99999999999997</ele><time>2026-04-08T10:49:54.147Z</time></trkpt><trkpt lat="44.2655996" lon="11.7775526"><ele>214.0</ele><time>2026-04-08T10:49:56.148Z</time></trkpt><trkpt lat="44.2654993" lon="11.7776118"><ele>214.0</ele><time>2026-04-08T10:49:58.155Z</time></trkpt><trkpt lat="44.2654006" lon="11.777675"><ele>212.79999999999998</ele><time>2026-04-08T10:50:00.159Z</time></trkpt><trkpt lat="44.2653033" lon="11.7777551"><ele>211.59999999999997</ele><time>2026-04-08T10:50:02.16Z</time></trkpt><trkpt lat="44.2652055" lon="11.7778514"><ele>210.4</ele><time>2026-04-08T10:50:04.169Z</time></trkpt><trkpt lat="44.2651119" lon="11.7779299"><ele>209.2</ele><time>2026-04-08T10:50:06.151Z</time></trkpt><trkpt lat="44.2650167" lon="11.7779892"><ele>208.0</ele><time>2026-04-08T10:50:08.165Z</time></trkpt><trkpt lat="44.2649088" lon="11.7780205"><ele>207.99999999999997</ele><time>2026-04-08T10:50:10.148Z</time></trkpt><trkpt lat="44.2647905" lon="11.7780587"><ele>208.0</ele><time>2026-04-08T10:50:12.164Z</time></trkpt><trkpt lat="44.2647302" lon="11.7780911"><ele>208.0</ele><time>2026-04-08T10:50:13.166Z</time></trkpt><trkpt lat="44.2646712" lon="11.7781391"><ele>208.0</ele><time>2026-04-08T10:50:14.173Z</time></trkpt><trkpt lat="44.2646143" lon="11.778191"><ele>207.99999999999997</ele><time>2026-04-08T10:50:15.157Z</time></trkpt><trkpt lat="44.2645596" lon="11.7782447"><ele>208.0</ele><time>2026-04-08T10:50:16.152Z</time></trkpt><trkpt lat="44.264505" lon="11.7782981"><ele>208.0</ele><time>2026-04-08T10:50:17.142Z</time></trkpt><trkpt lat="44.2644455" lon="11.778344"><ele>208.0</ele><time>2026-04-08T10:50:18.154Z</time></trkpt><trkpt lat="44.2643841" lon="11.7783818"><ele>208.0</ele><time>2026-04-08T10:50:19.163Z</time></trkpt><trkpt lat="44.2643145" lon="11.7784152"><ele>208.0</ele><time>2026-04-08T10:50:20.149Z</time></trkpt><trkpt lat="44.2642428" lon="11.7784487"><ele>208.0</ele><time>2026-04-08T10:50:21.168Z</time></trkpt><trkpt lat="44.2641751" lon="11.7784835"><ele>208.0</ele><time>2026-04-08T10:50:22.158Z</time></trkpt><trkpt lat="44.2641144" lon="11.7785204"><ele>208.0</ele><time>2026-04-08T10:50:23.157Z</time></trkpt><trkpt lat="44.2640558" lon="11.7785575"><ele>206.8</ele><time>2026-04-08T10:50:24.158Z</time></trkpt><trkpt lat="44.2639971" lon="11.7785938"><ele>205.60000000000002</ele><time>2026-04-08T10:50:25.148Z</time></trkpt><trkpt lat="44.2639376" lon="11.7786235"><ele>204.39999999999998</ele><time>2026-04-08T10:50:26.157Z</time></trkpt><trkpt lat="44.2638259" lon="11.7786823"><ele>203.2</ele><time>2026-04-08T10:50:28.14Z</time></trkpt><trkpt lat="44.2637094" lon="11.7787534"><ele>202.0</ele><time>2026-04-08T10:50:30.168Z</time></trkpt><trkpt lat="44.2635962" lon="11.7788112"><ele>201.99999999999997</ele><time>2026-04-08T10:50:32.147Z</time></trkpt><trkpt lat="44.263499" lon="11.7788582"><ele>202.0</ele><time>2026-04-08T10:50:34.159Z</time></trkpt><trkpt lat="44.2634211" lon="11.7788952"><ele>202.0</ele><time>2026-04-08T10:50:36.148Z</time></trkpt><trkpt lat="44.2633467" lon="11.7789408"><ele>202.0</ele><time>2026-04-08T10:50:38.145Z</time></trkpt><trkpt lat="44.2632689" lon="11.7789894"><ele>201.99999999999997</ele><time>2026-04-08T10:50:40.148Z</time></trkpt><trkpt lat="44.263186" lon="11.7790387"><ele>202.0</ele><time>2026-04-08T10:50:42.151Z</time></trkpt><trkpt lat="44.263091" lon="11.7790862"><ele>198.33333333333331</ele><time>2026-04-08T10:50:44.133Z</time></trkpt><trkpt lat="44.2630123" lon="11.7791334"><ele>194.66666666666666</ele><time>2026-04-08T10:50:46.151Z</time></trkpt><trkpt lat="44.2629515" lon="11.7791656"><ele>191.0</ele><time>2026-04-08T10:50:48.153Z</time></trkpt><trkpt lat="44.2628926" lon="11.7792127"><ele>187.33333333333331</ele><time>2026-04-08T10:50:50.154Z</time></trkpt><trkpt lat="44.2628564" lon="11.7792986"><ele>183.66666666666666</ele><time>2026-04-08T10:50:52.169Z</time></trkpt><trkpt lat="44.2628584" lon="11.7793983"><ele>180.0</ele><time>2026-04-08T10:50:53.921Z</time></trkpt><trkpt lat="44.2628824" lon="11.7795195"><ele>180.0</ele><time>2026-04-08T10:50:56.156Z</time></trkpt><trkpt lat="44.2628674" lon="11.7796677"><ele>180.0</ele><time>2026-04-08T10:50:58.138Z</time></trkpt><trkpt lat="44.2628459" lon="11.779802"><ele>180.0</ele><time>2026-04-08T10:51:00.145Z</time></trkpt><trkpt lat="44.2628108" lon="11.7799428"><ele>180.0</ele><time>2026-04-08T10:51:02.138Z</time></trkpt><trkpt lat="44.262769" lon="11.7801104"><ele>180.0</ele><time>2026-04-08T10:51:04.142Z</time></trkpt><trkpt lat="44.2627559" lon="11.7802096"><ele>180.0</ele><time>2026-04-08T10:51:05.161Z</time></trkpt><trkpt lat="44.2627463" lon="11.7803028"><ele>180.0</ele><time>2026-04-08T10:51:06.151Z</time></trkpt><trkpt lat="44.2627424" lon="11.7803906"><ele>180.0</ele><time>2026-04-08T10:51:07.157Z</time></trkpt><trkpt lat="44.2627336" lon="11.7805692"><ele>180.0</ele><time>2026-04-08T10:51:09.161Z</time></trkpt><trkpt lat="44.2627329" lon="11.7806729"><ele>180.0</ele><time>2026-04-08T10:51:10.172Z</time></trkpt><trkpt lat="44.2627374" lon="11.7807811"><ele>180.0</ele><time>2026-04-08T10:51:11.157Z</time></trkpt><trkpt lat="44.2627419" lon="11.7808877"><ele>180.0</ele><time>2026-04-08T10:51:12.155Z</time></trkpt><trkpt lat="44.2627497" lon="11.7809835"><ele>180.0</ele><time>2026-04-08T10:51:13.145Z</time></trkpt><trkpt lat="44.2627591" lon="11.7810712"><ele>180.0</ele><time>2026-04-08T10:51:14.149Z</time></trkpt><trkpt lat="44.262768" lon="11.7811627"><ele>180.0</ele><time>2026-04-08T10:51:15.146Z</time></trkpt><trkpt lat="44.2627793" lon="11.7812541"><ele>180.0</ele><time>2026-04-08T10:51:16.159Z</time></trkpt><trkpt lat="44.2627969" lon="11.7814076"><ele>180.0</ele><time>2026-04-08T10:51:18.158Z</time></trkpt><trkpt lat="44.2628313" lon="11.7815667"><ele>181.57142857142856</ele><time>2026-04-08T10:51:20.153Z</time></trkpt><trkpt lat="44.2628552" lon="11.7816561"><ele>183.14285714285717</ele><time>2026-04-08T10:51:21.152Z</time></trkpt><trkpt lat="44.26288" lon="11.7817431"><ele>184.71428571428572</ele><time>2026-04-08T10:51:22.157Z</time></trkpt><trkpt lat="44.2629062" lon="11.7818362"><ele>186.28571428571428</ele><time>2026-04-08T10:51:23.149Z</time></trkpt><trkpt lat="44.2629315" lon="11.7819349"><ele>187.85714285714283</ele><time>2026-04-08T10:51:24.152Z</time></trkpt><trkpt lat="44.262958" lon="11.782024"><ele>189.42857142857144</ele><time>2026-04-08T10:51:25.151Z</time></trkpt><trkpt lat="44.2629827" lon="11.7821081"><ele>191.0</ele><time>2026-04-08T10:51:26.153Z</time></trkpt><trkpt lat="44.2630292" lon="11.7822651"><ele>193.0</ele><time>2026-04-08T10:51:28.131Z</time></trkpt><trkpt lat="44.2630821" lon="11.7824341"><ele>195.0</ele><time>2026-04-08T10:51:30.16Z</time></trkpt><trkpt lat="44.2631169" lon="11.782524"><ele>197.0</ele><time>2026-04-08T10:51:31.143Z</time></trkpt><trkpt lat="44.2631503" lon="11.7826149"><ele>199.0</ele><time>2026-04-08T10:51:32.139Z</time></trkpt><trkpt lat="44.263178" lon="11.7827038"><ele>201.00000000000003</ele><time>2026-04-08T10:51:33.15Z</time></trkpt><trkpt lat="44.263207" lon="11.7827895"><ele>203.0</ele><time>2026-04-08T10:51:34.149Z</time></trkpt><trkpt lat="44.2632373" lon="11.7828714"><ele>204.8</ele><time>2026-04-08T10:51:35.155Z</time></trkpt><trkpt lat="44.2632842" lon="11.7830289"><ele>206.60000000000002</ele><time>2026-04-08T10:51:37.157Z</time></trkpt><trkpt lat="44.2633221" lon="11.7831922"><ele>208.39999999999998</ele><time>2026-04-08T10:51:39.15Z</time></trkpt><trkpt lat="44.2633523" lon="11.7833659"><ele>210.2</ele><time>2026-04-08T10:51:41.169Z</time></trkpt><trkpt lat="44.2633618" lon="11.7834558"><ele>212.0</ele><time>2026-04-08T10:51:42.151Z</time></trkpt><trkpt lat="44.2633684" lon="11.7835501"><ele>212.16666666666669</ele><time>2026-04-08T10:51:43.167Z</time></trkpt><trkpt lat="44.2633735" lon="11.7836417"><ele>212.33333333333334</ele><time>2026-04-08T10:51:44.143Z</time></trkpt><trkpt lat="44.2633768" lon="11.7837341"><ele>212.5</ele><time>2026-04-08T10:51:45.158Z</time></trkpt><trkpt lat="44.2633795" lon="11.7839034"><ele>212.66666666666669</ele><time>2026-04-08T10:51:47.162Z</time></trkpt><trkpt lat="44.2633836" lon="11.7839985"><ele>212.83333333333334</ele><time>2026-04-08T10:51:48.166Z</time></trkpt><trkpt lat="44.2633913" lon="11.7840976"><ele>213.0</ele><time>2026-04-08T10:51:49.147Z</time></trkpt><trkpt lat="44.2634" lon="11.7841967"><ele>213.0</ele><time>2026-04-08T10:51:50.147Z</time></trkpt><trkpt lat="44.2634097" lon="11.7842997"><ele>213.0</ele><time>2026-04-08T10:51:51.15Z</time></trkpt><trkpt lat="44.2634221" lon="11.7843971"><ele>213.0</ele><time>2026-04-08T10:51:52.157Z</time></trkpt><trkpt lat="44.2634338" lon="11.784505"><ele>213.0</ele><time>2026-04-08T10:51:53.154Z</time></trkpt><trkpt lat="44.2634445" lon="11.784631"><ele>213.0</ele><time>2026-04-08T10:51:54.154Z</time></trkpt><trkpt lat="44.2634521" lon="11.7847505"><ele>213.0</ele><time>2026-04-08T10:51:55.154Z</time></trkpt><trkpt lat="44.2634604" lon="11.7848461"><ele>213.83333333333334</ele><time>2026-04-08T10:51:56.152Z</time></trkpt><trkpt lat="44.2634691" lon="11.7849419"><ele>214.66666666666669</ele><time>2026-04-08T10:51:57.157Z</time></trkpt><trkpt lat="44.2634717" lon="11.7850391"><ele>215.5</ele><time>2026-04-08T10:51:58.153Z</time></trkpt><trkpt lat="44.2634826" lon="11.785131"><ele>216.33333333333334</ele><time>2026-04-08T10:51:59.156Z</time></trkpt><trkpt lat="44.2635084" lon="11.7852959"><ele>217.16666666666669</ele><time>2026-04-08T10:52:01.154Z</time></trkpt><trkpt lat="44.2635209" lon="11.7853894"><ele>218.0</ele><time>2026-04-08T10:52:02.147Z</time></trkpt><trkpt lat="44.2635401" lon="11.7854973"><ele>219.16666666666669</ele><time>2026-04-08T10:52:03.168Z</time></trkpt><trkpt lat="44.2635636" lon="11.7856092"><ele>220.33333333333334</ele><time>2026-04-08T10:52:04.149Z</time></trkpt><trkpt lat="44.2635862" lon="11.7857165"><ele>221.5</ele><time>2026-04-08T10:52:05.171Z</time></trkpt><trkpt lat="44.2636121" lon="11.785816"><ele>222.66666666666669</ele><time>2026-04-08T10:52:06.159Z</time></trkpt><trkpt lat="44.2636448" lon="11.785916"><ele>223.83333333333334</ele><time>2026-04-08T10:52:07.142Z</time></trkpt><trkpt lat="44.2636787" lon="11.7860162"><ele>225.0</ele><time>2026-04-08T10:52:08.158Z</time></trkpt><trkpt lat="44.2637102" lon="11.7861227"><ele>225.0</ele><time>2026-04-08T10:52:09.155Z</time></trkpt><trkpt lat="44.2637399" lon="11.7862405"><ele>225.0</ele><time>2026-04-08T10:52:10.176Z</time></trkpt><trkpt lat="44.2637674" lon="11.7863546"><ele>225.0</ele><time>2026-04-08T10:52:11.154Z</time></trkpt><trkpt lat="44.2637922" lon="11.7864586"><ele>225.0</ele><time>2026-04-08T10:52:12.148Z</time></trkpt><trkpt lat="44.2638159" lon="11.7865417"><ele>225.0</ele><time>2026-04-08T10:52:13.149Z</time></trkpt><trkpt lat="44.2638488" lon="11.7866598"><ele>225.0</ele><time>2026-04-08T10:52:15.166Z</time></trkpt><trkpt lat="44.2638773" lon="11.7867477"><ele>225.0</ele><time>2026-04-08T10:52:17.149Z</time></trkpt><trkpt lat="44.2639098" lon="11.7868432"><ele>225.0</ele><time>2026-04-08T10:52:19.159Z</time></trkpt><trkpt lat="44.2639706" lon="11.7869577"><ele>225.0</ele><time>2026-04-08T10:52:21.157Z</time></trkpt><trkpt lat="44.2640168" lon="11.7870745"><ele>225.0</ele><time>2026-04-08T10:52:22.159Z</time></trkpt><trkpt lat="44.2640778" lon="11.7872363"><ele>225.0</ele><time>2026-04-08T10:52:23.159Z</time></trkpt><trkpt lat="44.2641461" lon="11.7874315"><ele>220.33333333333331</ele><time>2026-04-08T10:52:24.159Z</time></trkpt><trkpt lat="44.2642264" lon="11.7876581"><ele>215.66666666666666</ele><time>2026-04-08T10:52:25.169Z</time></trkpt><trkpt lat="44.2643093" lon="11.7878909"><ele>211.0</ele><time>2026-04-08T10:52:26.149Z</time></trkpt><trkpt lat="44.264398" lon="11.7881293"><ele>208.66666666666666</ele><time>2026-04-08T10:52:27.166Z</time></trkpt><trkpt lat="44.2644786" lon="11.7883575"><ele>206.33333333333331</ele><time>2026-04-08T10:52:28.157Z</time></trkpt><trkpt lat="44.2645594" lon="11.7885678"><ele>204.0</ele><time>2026-04-08T10:52:29.153Z</time></trkpt><trkpt lat="44.2646305" lon="11.7887557"><ele>203.75</ele><time>2026-04-08T10:52:30.168Z</time></trkpt><trkpt lat="44.2646981" lon="11.7889211"><ele>203.5</ele><time>2026-04-08T10:52:31.171Z</time></trkpt><trkpt lat="44.2647679" lon="11.7890725"><ele>203.25</ele><time>2026-04-08T10:52:32.155Z</time></trkpt><trkpt lat="44.2648406" lon="11.7892152"><ele>203.0</ele><time>2026-04-08T10:52:33.156Z</time></trkpt><trkpt lat="44.2649218" lon="11.7893501"><ele>204.25</ele><time>2026-04-08T10:52:34.144Z</time></trkpt><trkpt lat="44.2650143" lon="11.7894804"><ele>205.5</ele><time>2026-04-08T10:52:35.143Z</time></trkpt><trkpt lat="44.2651087" lon="11.7895994"><ele>206.75</ele><time>2026-04-08T10:52:36.156Z</time></trkpt><trkpt lat="44.2652015" lon="11.7897113"><ele>208.0</ele><time>2026-04-08T10:52:37.153Z</time></trkpt><trkpt lat="44.2652949" lon="11.7898245"><ele>208.0</ele><time>2026-04-08T10:52:38.149Z</time></trkpt><trkpt lat="44.2653869" lon="11.7899362"><ele>208.0</ele><time>2026-04-08T10:52:39.17Z</time></trkpt><trkpt lat="44.2654896" lon="11.7900453"><ele>208.0</ele><time>2026-04-08T10:52:40.161Z</time></trkpt><trkpt lat="44.2656205" lon="11.790156"><ele>208.0</ele><time>2026-04-08T10:52:41.154Z</time></trkpt><trkpt lat="44.2657748" lon="11.7902631"><ele>209.66666666666666</ele><time>2026-04-08T10:52:42.156Z</time></trkpt><trkpt lat="44.2659301" lon="11.7903603"><ele>211.33333333333331</ele><time>2026-04-08T10:52:43.163Z</time></trkpt><trkpt lat="44.2660947" lon="11.7904643"><ele>213.0</ele><time>2026-04-08T10:52:44.158Z</time></trkpt><trkpt lat="44.2662527" lon="11.7905699"><ele>213.0</ele><time>2026-04-08T10:52:45.152Z</time></trkpt><trkpt lat="44.266393" lon="11.7906624"><ele>213.0</ele><time>2026-04-08T10:52:46.155Z</time></trkpt><trkpt lat="44.2665161" lon="11.7907491"><ele>213.0</ele><time>2026-04-08T10:52:47.137Z</time></trkpt><trkpt lat="44.2666279" lon="11.7908302"><ele>213.0</ele><time>2026-04-08T10:52:48.146Z</time></trkpt><trkpt lat="44.2667316" lon="11.7909076"><ele>213.0</ele><time>2026-04-08T10:52:49.145Z</time></trkpt><trkpt lat="44.2668295" lon="11.7909742"><ele>213.0</ele><time>2026-04-08T10:52:50.149Z</time></trkpt><trkpt lat="44.2669126" lon="11.7910308"><ele>213.0</ele><time>2026-04-08T10:52:51.14Z</time></trkpt><trkpt lat="44.2669858" lon="11.7910767"><ele>213.0</ele><time>2026-04-08T10:52:52.167Z</time></trkpt><trkpt lat="44.2670562" lon="11.7911318"><ele>213.0</ele><time>2026-04-08T10:52:53.145Z</time></trkpt><trkpt lat="44.2671291" lon="11.7912009"><ele>213.0</ele><time>2026-04-08T10:52:54.151Z</time></trkpt><trkpt lat="44.2672019" lon="11.7912939"><ele>213.0</ele><time>2026-04-08T10:52:55.145Z</time></trkpt><trkpt lat="44.2672704" lon="11.7914045"><ele>213.0</ele><time>2026-04-08T10:52:56.163Z</time></trkpt><trkpt lat="44.2673285" lon="11.7915452"><ele>213.0</ele><time>2026-04-08T10:52:57.149Z</time></trkpt><trkpt lat="44.2673853" lon="11.7917132"><ele>212.75</ele><time>2026-04-08T10:52:58.151Z</time></trkpt><trkpt lat="44.2674362" lon="11.7918779"><ele>212.5</ele><time>2026-04-08T10:52:59.157Z</time></trkpt><trkpt lat="44.2674832" lon="11.7920385"><ele>212.25</ele><time>2026-04-08T10:53:00.162Z</time></trkpt><trkpt lat="44.2675498" lon="11.7921758"><ele>212.0</ele><time>2026-04-08T10:53:01.172Z</time></trkpt><trkpt lat="44.2676309" lon="11.7923217"><ele>212.0</ele><time>2026-04-08T10:53:02.167Z</time></trkpt><trkpt lat="44.2677245" lon="11.7924686"><ele>212.0</ele><time>2026-04-08T10:53:03.164Z</time></trkpt><trkpt lat="44.2678219" lon="11.7926074"><ele>212.0</ele><time>2026-04-08T10:53:04.151Z</time></trkpt><trkpt lat="44.2679143" lon="11.7927411"><ele>212.0</ele><time>2026-04-08T10:53:05.153Z</time></trkpt><trkpt lat="44.2680166" lon="11.7928656"><ele>210.39999999999998</ele><time>2026-04-08T10:53:06.161Z</time></trkpt><trkpt lat="44.2681259" lon="11.7929768"><ele>208.79999999999998</ele><time>2026-04-08T10:53:07.163Z</time></trkpt><trkpt lat="44.2682249" lon="11.7930666"><ele>207.2</ele><time>2026-04-08T10:53:08.161Z</time></trkpt><trkpt lat="44.2683095" lon="11.7931366"><ele>205.6</ele><time>2026-04-08T10:53:09.152Z</time></trkpt><trkpt lat="44.268388" lon="11.7931954"><ele>204.0</ele><time>2026-04-08T10:53:10.155Z</time></trkpt><trkpt lat="44.268458" lon="11.7932479"><ele>204.0</ele><time>2026-04-08T10:53:11.14Z</time></trkpt><trkpt lat="44.268514" lon="11.7933062"><ele>204.0</ele><time>2026-04-08T10:53:12.177Z</time></trkpt><trkpt lat="44.2685634" lon="11.7933635"><ele>204.0</ele><time>2026-04-08T10:53:13.15Z</time></trkpt><trkpt lat="44.268597" lon="11.7934382"><ele>204.0</ele><time>2026-04-08T10:53:14.169Z</time></trkpt><trkpt lat="44.2686241" lon="11.7935523"><ele>204.0</ele><time>2026-04-08T10:53:15.156Z</time></trkpt><trkpt lat="44.2686569" lon="11.7936984"><ele>204.0</ele><time>2026-04-08T10:53:16.158Z</time></trkpt><trkpt lat="44.2686908" lon="11.7938595"><ele>203.0</ele><time>2026-04-08T10:53:17.155Z</time></trkpt><trkpt lat="44.2687287" lon="11.7940273"><ele>202.0</ele><time>2026-04-08T10:53:18.165Z</time></trkpt><trkpt lat="44.2687738" lon="11.7942086"><ele>201.0</ele><time>2026-04-08T10:53:19.158Z</time></trkpt><trkpt lat="44.2688239" lon="11.7943935"><ele>200.0</ele><time>2026-04-08T10:53:20.151Z</time></trkpt><trkpt lat="44.2688797" lon="11.7945754"><ele>197.33333333333334</ele><time>2026-04-08T10:53:21.155Z</time></trkpt><trkpt lat="44.2689395" lon="11.7947565"><ele>194.66666666666669</ele><time>2026-04-08T10:53:22.161Z</time></trkpt><trkpt lat="44.2690077" lon="11.7949456"><ele>192.0</ele><time>2026-04-08T10:53:23.165Z</time></trkpt><trkpt lat="44.2690897" lon="11.7951374"><ele>191.0</ele><time>2026-04-08T10:53:24.154Z</time></trkpt><trkpt lat="44.2691732" lon="11.7953389"><ele>190.0</ele><time>2026-04-08T10:53:25.176Z</time></trkpt><trkpt lat="44.2692477" lon="11.7955266"><ele>189.0</ele><time>2026-04-08T10:53:26.139Z</time></trkpt><trkpt lat="44.269321" lon="11.7957052"><ele>189.0</ele><time>2026-04-08T10:53:27.141Z</time></trkpt><trkpt lat="44.2693902" lon="11.7958778"><ele>189.0</ele><time>2026-04-08T10:53:28.153Z</time></trkpt><trkpt lat="44.2694581" lon="11.7960444"><ele>189.0</ele><time>2026-04-08T10:53:29.148Z</time></trkpt><trkpt lat="44.2695268" lon="11.7962164"><ele>189.0</ele><time>2026-04-08T10:53:30.152Z</time></trkpt><trkpt lat="44.2695952" lon="11.7963905"><ele>187.25</ele><time>2026-04-08T10:53:31.17Z</time></trkpt><trkpt lat="44.2696661" lon="11.7965769"><ele>185.5</ele><time>2026-04-08T10:53:32.141Z</time></trkpt><trkpt lat="44.2697331" lon="11.7967528"><ele>183.75</ele><time>2026-04-08T10:53:33.143Z</time></trkpt><trkpt lat="44.2697967" lon="11.7969185"><ele>182.0</ele><time>2026-04-08T10:53:34.157Z</time></trkpt><trkpt lat="44.2698621" lon="11.797073"><ele>181.25</ele><time>2026-04-08T10:53:35.166Z</time></trkpt><trkpt lat="44.2699382" lon="11.7972335"><ele>180.5</ele><time>2026-04-08T10:53:36.147Z</time></trkpt><trkpt lat="44.270019" lon="11.7973959"><ele>179.75</ele><time>2026-04-08T10:53:37.157Z</time></trkpt><trkpt lat="44.2701127" lon="11.7975738"><ele>179.0</ele><time>2026-04-08T10:53:38.159Z</time></trkpt><trkpt lat="44.2702154" lon="11.7977512"><ele>178.5</ele><time>2026-04-08T10:53:39.151Z</time></trkpt><trkpt lat="44.270312" lon="11.7979174"><ele>178.0</ele><time>2026-04-08T10:53:40.153Z</time></trkpt><trkpt lat="44.2703967" lon="11.7980662"><ele>177.5</ele><time>2026-04-08T10:53:41.153Z</time></trkpt><trkpt lat="44.2704779" lon="11.7982026"><ele>177.0</ele><time>2026-04-08T10:53:42.165Z</time></trkpt><trkpt lat="44.2705518" lon="11.7983408"><ele>176.75</ele><time>2026-04-08T10:53:43.156Z</time></trkpt><trkpt lat="44.2706157" lon="11.7984803"><ele>176.5</ele><time>2026-04-08T10:53:44.16Z</time></trkpt><trkpt lat="44.270684" lon="11.7986283"><ele>176.25</ele><time>2026-04-08T10:53:45.162Z</time></trkpt><trkpt lat="44.2707554" lon="11.7987925"><ele>176.0</ele><time>2026-04-08T10:53:46.149Z</time></trkpt><trkpt lat="44.2708225" lon="11.7989475"><ele>177.0</ele><time>2026-04-08T10:53:47.154Z</time></trkpt><trkpt lat="44.2708916" lon="11.7990824"><ele>178.0</ele><time>2026-04-08T10:53:48.144Z</time></trkpt><trkpt lat="44.270966" lon="11.799195"><ele>179.0</ele><time>2026-04-08T10:53:49.164Z</time></trkpt><trkpt lat="44.2710385" lon="11.7993062"><ele>180.0</ele><time>2026-04-08T10:53:50.142Z</time></trkpt><trkpt lat="44.2711128" lon="11.7994151"><ele>181.0</ele><time>2026-04-08T10:53:51.163Z</time></trkpt><trkpt lat="44.2711916" lon="11.7995203"><ele>181.0</ele><time>2026-04-08T10:53:52.158Z</time></trkpt><trkpt lat="44.2712775" lon="11.7996412"><ele>181.0</ele><time>2026-04-08T10:53:53.157Z</time></trkpt><trkpt lat="44.2713607" lon="11.7997699"><ele>181.0</ele><time>2026-04-08T10:53:54.132Z</time></trkpt><trkpt lat="44.2714368" lon="11.7998878"><ele>181.0</ele><time>2026-04-08T10:53:55.153Z</time></trkpt><trkpt lat="44.2715069" lon="11.7999923"><ele>181.0</ele><time>2026-04-08T10:53:56.138Z</time></trkpt><trkpt lat="44.2715596" lon="11.8001136"><ele>181.0</ele><time>2026-04-08T10:53:57.137Z</time></trkpt><trkpt lat="44.2715896" lon="11.8002616"><ele>181.0</ele><time>2026-04-08T10:53:58.147Z</time></trkpt><trkpt lat="44.2716067" lon="11.800428"><ele>181.0</ele><time>2026-04-08T10:53:59.152Z</time></trkpt><trkpt lat="44.2716216" lon="11.8005972"><ele>181.0</ele><time>2026-04-08T10:54:00.139Z</time></trkpt><trkpt lat="44.2716332" lon="11.8007527"><ele>181.0</ele><time>2026-04-08T10:54:01.146Z</time></trkpt><trkpt lat="44.2716373" lon="11.8008912"><ele>181.0</ele><time>2026-04-08T10:54:02.154Z</time></trkpt><trkpt lat="44.2716523" lon="11.8009941"><ele>181.0</ele><time>2026-04-08T10:54:03.137Z</time></trkpt><trkpt lat="44.2716581" lon="11.8011219"><ele>181.0</ele><time>2026-04-08T10:54:05.147Z</time></trkpt><trkpt lat="44.2716569" lon="11.8012144"><ele>181.0</ele><time>2026-04-08T10:54:08.158Z</time></trkpt><trkpt lat="44.2717272" lon="11.8012489"><ele>180.8</ele><time>2026-04-08T10:54:11.139Z</time></trkpt><trkpt lat="44.2718354" lon="11.80129"><ele>180.60000000000002</ele><time>2026-04-08T10:54:13.159Z</time></trkpt><trkpt lat="44.2718889" lon="11.801338"><ele>180.4</ele><time>2026-04-08T10:54:14.144Z</time></trkpt><trkpt lat="44.271958" lon="11.8014097"><ele>180.2</ele><time>2026-04-08T10:54:15.145Z</time></trkpt><trkpt lat="44.2720516" lon="11.8015037"><ele>180.0</ele><time>2026-04-08T10:54:16.159Z</time></trkpt><trkpt lat="44.2721585" lon="11.8016082"><ele>180.25</ele><time>2026-04-08T10:54:17.151Z</time></trkpt><trkpt lat="44.2722748" lon="11.8017033"><ele>180.5</ele><time>2026-04-08T10:54:18.159Z</time></trkpt><trkpt lat="44.2723944" lon="11.8017969"><ele>180.75</ele><time>2026-04-08T10:54:19.157Z</time></trkpt><trkpt lat="44.2725071" lon="11.8018765"><ele>181.0</ele><time>2026-04-08T10:54:20.171Z</time></trkpt><trkpt lat="44.2726231" lon="11.8019379"><ele>181.20000000000002</ele><time>2026-04-08T10:54:21.147Z</time></trkpt><trkpt lat="44.2727383" lon="11.8019968"><ele>181.4</ele><time>2026-04-08T10:54:22.166Z</time></trkpt><trkpt lat="44.2728425" lon="11.8020537"><ele>181.6</ele><time>2026-04-08T10:54:23.152Z</time></trkpt><trkpt lat="44.2729407" lon="11.8021101"><ele>181.8</ele><time>2026-04-08T10:54:24.159Z</time></trkpt><trkpt lat="44.2730263" lon="11.8021668"><ele>182.0</ele><time>2026-04-08T10:54:25.16Z</time></trkpt><trkpt lat="44.2731063" lon="11.8022227"><ele>182.0</ele><time>2026-04-08T10:54:26.154Z</time></trkpt><trkpt lat="44.2731772" lon="11.8022809"><ele>182.0</ele><time>2026-04-08T10:54:27.142Z</time></trkpt><trkpt lat="44.2732382" lon="11.8023493"><ele>182.0</ele><time>2026-04-08T10:54:28.134Z</time></trkpt><trkpt lat="44.2732864" lon="11.8024402"><ele>182.0</ele><time>2026-04-08T10:54:29.146Z</time></trkpt><trkpt lat="44.2733288" lon="11.8025667"><ele>182.0</ele><time>2026-04-08T10:54:30.139Z</time></trkpt><trkpt lat="44.2733775" lon="11.8026967"><ele>182.0</ele><time>2026-04-08T10:54:31.159Z</time></trkpt><trkpt lat="44.2734298" lon="11.802824"><ele>183.8</ele><time>2026-04-08T10:54:32.135Z</time></trkpt><trkpt lat="44.2734909" lon="11.8029315"><ele>185.6</ele><time>2026-04-08T10:54:33.146Z</time></trkpt><trkpt lat="44.2735613" lon="11.8030358"><ele>187.4</ele><time>2026-04-08T10:54:34.152Z</time></trkpt><trkpt lat="44.2736382" lon="11.8031274"><ele>189.20000000000002</ele><time>2026-04-08T10:54:35.151Z</time></trkpt><trkpt lat="44.2737317" lon="11.8032061"><ele>191.0</ele><time>2026-04-08T10:54:36.17Z</time></trkpt><trkpt lat="44.2738326" lon="11.8032915"><ele>191.0</ele><time>2026-04-08T10:54:37.16Z</time></trkpt><trkpt lat="44.2739381" lon="11.8033679"><ele>191.0</ele><time>2026-04-08T10:54:38.14Z</time></trkpt><trkpt lat="44.274045" lon="11.8034471"><ele>191.0</ele><time>2026-04-08T10:54:39.153Z</time></trkpt><trkpt lat="44.2741596" lon="11.8035271"><ele>191.0</ele><time>2026-04-08T10:54:40.159Z</time></trkpt><trkpt lat="44.2742727" lon="11.8036185"><ele>192.0</ele><time>2026-04-08T10:54:41.163Z</time></trkpt><trkpt lat="44.2743786" lon="11.8037019"><ele>193.0</ele><time>2026-04-08T10:54:42.16Z</time></trkpt><trkpt lat="44.2744772" lon="11.8037744"><ele>194.0</ele><time>2026-04-08T10:54:43.149Z</time></trkpt><trkpt lat="44.2745653" lon="11.8038418"><ele>195.0</ele><time>2026-04-08T10:54:44.16Z</time></trkpt><trkpt lat="44.2746622" lon="11.8039022"><ele>196.0</ele><time>2026-04-08T10:54:45.149Z</time></trkpt><trkpt lat="44.2747675" lon="11.8039507"><ele>191.25</ele><time>2026-04-08T10:54:46.144Z</time></trkpt><trkpt lat="44.2748753" lon="11.8040005"><ele>186.5</ele><time>2026-04-08T10:54:47.162Z</time></trkpt><trkpt lat="44.2749917" lon="11.8040492"><ele>181.75</ele><time>2026-04-08T10:54:48.158Z</time></trkpt><trkpt lat="44.2751068" lon="11.8040917"><ele>177.0</ele><time>2026-04-08T10:54:49.149Z</time></trkpt><trkpt lat="44.2752183" lon="11.8041161"><ele>177.0</ele><time>2026-04-08T10:54:50.145Z</time></trkpt><trkpt lat="44.2753165" lon="11.8041414"><ele>177.0</ele><time>2026-04-08T10:54:51.141Z</time></trkpt><trkpt lat="44.2754125" lon="11.8041716"><ele>177.0</ele><time>2026-04-08T10:54:52.161Z</time></trkpt><trkpt lat="44.2754996" lon="11.8042095"><ele>177.0</ele><time>2026-04-08T10:54:53.153Z</time></trkpt><trkpt lat="44.2755827" lon="11.8042651"><ele>177.0</ele><time>2026-04-08T10:54:54.148Z</time></trkpt><trkpt lat="44.2756529" lon="11.804343"><ele>176.0</ele><time>2026-04-08T10:54:55.157Z</time></trkpt><trkpt lat="44.2757058" lon="11.8044118"><ele>175.0</ele><time>2026-04-08T10:54:56.151Z</time></trkpt><trkpt lat="44.2757523" lon="11.8044875"><ele>174.0</ele><time>2026-04-08T10:54:57.157Z</time></trkpt><trkpt lat="44.2757913" lon="11.8045645"><ele>173.0</ele><time>2026-04-08T10:54:58.154Z</time></trkpt><trkpt lat="44.2758418" lon="11.804714"><ele>172.0</ele><time>2026-04-08T10:55:00.138Z</time></trkpt><trkpt lat="44.2758768" lon="11.8047943"><ele>171.0</ele><time>2026-04-08T10:55:01.16Z</time></trkpt><trkpt lat="44.2759123" lon="11.8048781"><ele>171.0</ele><time>2026-04-08T10:55:02.153Z</time></trkpt><trkpt lat="44.2759485" lon="11.8049649"><ele>171.0</ele><time>2026-04-08T10:55:03.147Z</time></trkpt><trkpt lat="44.2759856" lon="11.8050538"><ele>171.0</ele><time>2026-04-08T10:55:04.154Z</time></trkpt><trkpt lat="44.2760241" lon="11.8051489"><ele>171.0</ele><time>2026-04-08T10:55:05.138Z</time></trkpt><trkpt lat="44.2760732" lon="11.8052504"><ele>171.0</ele><time>2026-04-08T10:55:06.143Z</time></trkpt><trkpt lat="44.2761253" lon="11.8053655"><ele>171.0</ele><time>2026-04-08T10:55:07.148Z</time></trkpt><trkpt lat="44.2761866" lon="11.8054965"><ele>173.33333333333334</ele><time>2026-04-08T10:55:08.14Z</time></trkpt><trkpt lat="44.2762507" lon="11.8056442"><ele>175.66666666666669</ele><time>2026-04-08T10:55:09.146Z</time></trkpt><trkpt lat="44.2763398" lon="11.8058233"><ele>178.0</ele><time>2026-04-08T10:55:10.15Z</time></trkpt><trkpt lat="44.2764449" lon="11.8060136"><ele>175.0</ele><time>2026-04-08T10:55:11.146Z</time></trkpt><trkpt lat="44.2765476" lon="11.8061723"><ele>172.0</ele><time>2026-04-08T10:55:12.134Z</time></trkpt><trkpt lat="44.2766256" lon="11.8062923"><ele>169.0</ele><time>2026-04-08T10:55:13.159Z</time></trkpt><trkpt lat="44.2766832" lon="11.8063966"><ele>166.0</ele><time>2026-04-08T10:55:14.149Z</time></trkpt><trkpt lat="44.2767245" lon="11.8064989"><ele>163.0</ele><time>2026-04-08T10:55:15.149Z</time></trkpt><trkpt lat="44.2767589" lon="11.8066091"><ele>163.0</ele><time>2026-04-08T10:55:16.137Z</time></trkpt><trkpt lat="44.2767707" lon="11.8067279"><ele>163.0</ele><time>2026-04-08T10:55:17.169Z</time></trkpt><trkpt lat="44.2767689" lon="11.8068728"><ele>163.0</ele><time>2026-04-08T10:55:18.145Z</time></trkpt><trkpt lat="44.2767443" lon="11.8070327"><ele>163.0</ele><time>2026-04-08T10:55:19.156Z</time></trkpt><trkpt lat="44.276697" lon="11.8071979"><ele>163.0</ele><time>2026-04-08T10:55:20.161Z</time></trkpt><trkpt lat="44.276651" lon="11.8073521"><ele>163.0</ele><time>2026-04-08T10:55:21.153Z</time></trkpt><trkpt lat="44.2766292" lon="11.8074965"><ele>163.0</ele><time>2026-04-08T10:55:22.158Z</time></trkpt><trkpt lat="44.276641" lon="11.807635"><ele>163.0</ele><time>2026-04-08T10:55:23.15Z</time></trkpt><trkpt lat="44.276684" lon="11.8077804"><ele>163.0</ele><time>2026-04-08T10:55:24.132Z</time></trkpt><trkpt lat="44.27675" lon="11.8079212"><ele>163.0</ele><time>2026-04-08T10:55:25.139Z</time></trkpt><trkpt lat="44.2768178" lon="11.8080568"><ele>163.0</ele><time>2026-04-08T10:55:26.158Z</time></trkpt><trkpt lat="44.2768684" lon="11.8081847"><ele>163.0</ele><time>2026-04-08T10:55:27.159Z</time></trkpt><trkpt lat="44.2768945" lon="11.8083212"><ele>163.0</ele><time>2026-04-08T10:55:28.164Z</time></trkpt><trkpt lat="44.2768825" lon="11.8084625"><ele>163.0</ele><time>2026-04-08T10:55:29.157Z</time></trkpt><trkpt lat="44.2768592" lon="11.8086067"><ele>163.0</ele><time>2026-04-08T10:55:30.165Z</time></trkpt><trkpt lat="44.2768498" lon="11.8087668"><ele>165.0</ele><time>2026-04-08T10:55:31.147Z</time></trkpt><trkpt lat="44.2768755" lon="11.8089442"><ele>167.0</ele><time>2026-04-08T10:55:32.149Z</time></trkpt><trkpt lat="44.2769149" lon="11.8091186"><ele>169.0</ele><time>2026-04-08T10:55:33.149Z</time></trkpt><trkpt lat="44.2770002" lon="11.8092835"><ele>171.0</ele><time>2026-04-08T10:55:34.152Z</time></trkpt><trkpt lat="44.2771187" lon="11.8094675"><ele>172.0</ele><time>2026-04-08T10:55:35.157Z</time></trkpt><trkpt lat="44.2772292" lon="11.8096657"><ele>173.0</ele><time>2026-04-08T10:55:36.146Z</time></trkpt><trkpt lat="44.2773268" lon="11.8098554"><ele>174.0</ele><time>2026-04-08T10:55:37.156Z</time></trkpt><trkpt lat="44.277419" lon="11.8100305"><ele>170.5</ele><time>2026-04-08T10:55:38.152Z</time></trkpt><trkpt lat="44.2775054" lon="11.8102006"><ele>167.0</ele><time>2026-04-08T10:55:39.16Z</time></trkpt><trkpt lat="44.2775931" lon="11.8103549"><ele>163.5</ele><time>2026-04-08T10:55:40.147Z</time></trkpt><trkpt lat="44.2776729" lon="11.8105091"><ele>160.0</ele><time>2026-04-08T10:55:41.158Z</time></trkpt><trkpt lat="44.2777469" lon="11.8106592"><ele>160.0</ele><time>2026-04-08T10:55:42.154Z</time></trkpt><trkpt lat="44.2778213" lon="11.8108187"><ele>160.0</ele><time>2026-04-08T10:55:43.153Z</time></trkpt><trkpt lat="44.2778963" lon="11.8109854"><ele>160.0</ele><time>2026-04-08T10:55:44.152Z</time></trkpt><trkpt lat="44.2779752" lon="11.8111478"><ele>160.0</ele><time>2026-04-08T10:55:45.163Z</time></trkpt><trkpt lat="44.2780705" lon="11.8113114"><ele>155.66666666666669</ele><time>2026-04-08T10:55:46.17Z</time></trkpt><trkpt lat="44.2781871" lon="11.8114757"><ele>151.33333333333334</ele><time>2026-04-08T10:55:47.133Z</time></trkpt><trkpt lat="44.2782954" lon="11.8116313"><ele>147.0</ele><time>2026-04-08T10:55:48.153Z</time></trkpt><trkpt lat="44.2783919" lon="11.8117728"><ele>146.25</ele><time>2026-04-08T10:55:49.153Z</time></trkpt><trkpt lat="44.2784832" lon="11.8119076"><ele>145.5</ele><time>2026-04-08T10:55:50.155Z</time></trkpt><trkpt lat="44.2785723" lon="11.812043"><ele>144.75</ele><time>2026-04-08T10:55:51.137Z</time></trkpt><trkpt lat="44.2786511" lon="11.812176"><ele>144.0</ele><time>2026-04-08T10:55:52.158Z</time></trkpt><trkpt lat="44.2787318" lon="11.8123201"><ele>144.0</ele><time>2026-04-08T10:55:53.163Z</time></trkpt><trkpt lat="44.2788217" lon="11.8124826"><ele>144.0</ele><time>2026-04-08T10:55:54.153Z</time></trkpt><trkpt lat="44.2789351" lon="11.8126722"><ele>144.0</ele><time>2026-04-08T10:55:55.165Z</time></trkpt><trkpt lat="44.2790562" lon="11.812888"><ele>141.66666666666666</ele><time>2026-04-08T10:55:56.139Z</time></trkpt><trkpt lat="44.2791823" lon="11.8131088"><ele>139.33333333333331</ele><time>2026-04-08T10:55:57.164Z</time></trkpt><trkpt lat="44.2792958" lon="11.8133253"><ele>137.0</ele><time>2026-04-08T10:55:58.15Z</time></trkpt><trkpt lat="44.2794074" lon="11.8135311"><ele>133.66666666666666</ele><time>2026-04-08T10:55:59.159Z</time></trkpt><trkpt lat="44.279518" lon="11.8137307"><ele>130.33333333333334</ele><time>2026-04-08T10:56:00.159Z</time></trkpt><trkpt lat="44.2796288" lon="11.8139315"><ele>127.0</ele><time>2026-04-08T10:56:01.156Z</time></trkpt><trkpt lat="44.2797441" lon="11.8141397"><ele>128.0</ele><time>2026-04-08T10:56:02.16Z</time></trkpt><trkpt lat="44.2798589" lon="11.8143477"><ele>129.0</ele><time>2026-04-08T10:56:03.144Z</time></trkpt><trkpt lat="44.279971" lon="11.8145492"><ele>130.0</ele><time>2026-04-08T10:56:04.157Z</time></trkpt><trkpt lat="44.2800702" lon="11.8147257"><ele>130.0</ele><time>2026-04-08T10:56:05.163Z</time></trkpt><trkpt lat="44.2801684" lon="11.8149016"><ele>130.0</ele><time>2026-04-08T10:56:06.15Z</time></trkpt><trkpt lat="44.280261" lon="11.8150728"><ele>130.0</ele><time>2026-04-08T10:56:07.167Z</time></trkpt><trkpt lat="44.2803548" lon="11.8152347"><ele>129.66666666666669</ele><time>2026-04-08T10:56:08.158Z</time></trkpt><trkpt lat="44.2804473" lon="11.8153987"><ele>129.33333333333334</ele><time>2026-04-08T10:56:09.17Z</time></trkpt><trkpt lat="44.2805399" lon="11.8155736"><ele>129.0</ele><time>2026-04-08T10:56:10.158Z</time></trkpt><trkpt lat="44.2806377" lon="11.8157554"><ele>129.0</ele><time>2026-04-08T10:56:11.172Z</time></trkpt><trkpt lat="44.2807424" lon="11.8159531"><ele>129.0</ele><time>2026-04-08T10:56:12.183Z</time></trkpt><trkpt lat="44.2808483" lon="11.8161448"><ele>129.0</ele><time>2026-04-08T10:56:13.153Z</time></trkpt><trkpt lat="44.2809469" lon="11.8163292"><ele>126.33333333333334</ele><time>2026-04-08T10:56:14.164Z</time></trkpt><trkpt lat="44.2810416" lon="11.816505"><ele>123.66666666666667</ele><time>2026-04-08T10:56:15.163Z</time></trkpt><trkpt lat="44.2811361" lon="11.8166656"><ele>121.0</ele><time>2026-04-08T10:56:16.151Z</time></trkpt><trkpt lat="44.2812295" lon="11.8168262"><ele>119.75</ele><time>2026-04-08T10:56:17.158Z</time></trkpt><trkpt lat="44.2813135" lon="11.816978"><ele>118.5</ele><time>2026-04-08T10:56:18.148Z</time></trkpt><trkpt lat="44.281399" lon="11.8171217"><ele>117.25</ele><time>2026-04-08T10:56:19.174Z</time></trkpt><trkpt lat="44.2814814" lon="11.8172693"><ele>116.0</ele><time>2026-04-08T10:56:20.164Z</time></trkpt><trkpt lat="44.2815569" lon="11.8174079"><ele>116.0</ele><time>2026-04-08T10:56:21.16Z</time></trkpt><trkpt lat="44.2816321" lon="11.8175437"><ele>116.0</ele><time>2026-04-08T10:56:22.16Z</time></trkpt><trkpt lat="44.2817002" lon="11.8176684"><ele>116.0</ele><time>2026-04-08T10:56:23.164Z</time></trkpt><trkpt lat="44.281766" lon="11.8177851"><ele>116.0</ele><time>2026-04-08T10:56:24.148Z</time></trkpt><trkpt lat="44.2818317" lon="11.8179024"><ele>116.0</ele><time>2026-04-08T10:56:25.158Z</time></trkpt><trkpt lat="44.2818893" lon="11.8180299"><ele>115.25</ele><time>2026-04-08T10:56:26.148Z</time></trkpt><trkpt lat="44.2819409" lon="11.8181837"><ele>114.5</ele><time>2026-04-08T10:56:27.16Z</time></trkpt><trkpt lat="44.2819855" lon="11.8183605"><ele>113.75</ele><time>2026-04-08T10:56:28.152Z</time></trkpt><trkpt lat="44.2820365" lon="11.8185807"><ele>113.0</ele><time>2026-04-08T10:56:29.157Z</time></trkpt><trkpt lat="44.2820878" lon="11.8188552"><ele>113.0</ele><time>2026-04-08T10:56:30.159Z</time></trkpt><trkpt lat="44.2821467" lon="11.8191533"><ele>113.0</ele><time>2026-04-08T10:56:31.158Z</time></trkpt><trkpt lat="44.2822013" lon="11.8194196"><ele>113.0</ele><time>2026-04-08T10:56:32.168Z</time></trkpt><trkpt lat="44.2822503" lon="11.8196808"><ele>111.66666666666666</ele><time>2026-04-08T10:56:33.172Z</time></trkpt><trkpt lat="44.2822919" lon="11.8199225"><ele>110.33333333333334</ele><time>2026-04-08T10:56:34.152Z</time></trkpt><trkpt lat="44.2823348" lon="11.8201423"><ele>109.0</ele><time>2026-04-08T10:56:35.16Z</time></trkpt><trkpt lat="44.2823762" lon="11.8203474"><ele>108.5</ele><time>2026-04-08T10:56:36.153Z</time></trkpt><trkpt lat="44.2824179" lon="11.8205515"><ele>108.0</ele><time>2026-04-08T10:56:37.18Z</time></trkpt><trkpt lat="44.2824539" lon="11.8207539"><ele>107.5</ele><time>2026-04-08T10:56:38.162Z</time></trkpt><trkpt lat="44.2824878" lon="11.820954"><ele>107.0</ele><time>2026-04-08T10:56:39.158Z</time></trkpt><trkpt lat="44.2825124" lon="11.8211364"><ele>106.5</ele><time>2026-04-08T10:56:40.146Z</time></trkpt><trkpt lat="44.2825223" lon="11.8213145"><ele>106.0</ele><time>2026-04-08T10:56:41.163Z</time></trkpt><trkpt lat="44.2825103" lon="11.8214882"><ele>105.5</ele><time>2026-04-08T10:56:42.164Z</time></trkpt><trkpt lat="44.2824722" lon="11.8216806"><ele>105.0</ele><time>2026-04-08T10:56:43.138Z</time></trkpt><trkpt lat="44.2824301" lon="11.8218734"><ele>104.25</ele><time>2026-04-08T10:56:44.177Z</time></trkpt><trkpt lat="44.2824018" lon="11.8220768"><ele>103.5</ele><time>2026-04-08T10:56:45.156Z</time></trkpt><trkpt lat="44.2823836" lon="11.8222685"><ele>102.75</ele><time>2026-04-08T10:56:46.163Z</time></trkpt><trkpt lat="44.28238" lon="11.8224542"><ele>102.0</ele><time>2026-04-08T10:56:47.167Z</time></trkpt><trkpt lat="44.2823884" lon="11.8226372"><ele>101.0</ele><time>2026-04-08T10:56:48.147Z</time></trkpt><trkpt lat="44.2824184" lon="11.8228375"><ele>100.0</ele><time>2026-04-08T10:56:49.163Z</time></trkpt><trkpt lat="44.282462" lon="11.8230522"><ele>99.0</ele><time>2026-04-08T10:56:50.157Z</time></trkpt><trkpt lat="44.2825018" lon="11.8232814"><ele>98.33333333333334</ele><time>2026-04-08T10:56:51.166Z</time></trkpt><trkpt lat="44.2825426" lon="11.8234958"><ele>97.66666666666667</ele><time>2026-04-08T10:56:52.148Z</time></trkpt><trkpt lat="44.2825835" lon="11.8236984"><ele>97.0</ele><time>2026-04-08T10:56:53.154Z</time></trkpt><trkpt lat="44.282629" lon="11.8239084"><ele>97.0</ele><time>2026-04-08T10:56:54.158Z</time></trkpt><trkpt lat="44.2826859" lon="11.8241251"><ele>97.0</ele><time>2026-04-08T10:56:55.16Z</time></trkpt><trkpt lat="44.2827392" lon="11.8243572"><ele>97.0</ele><time>2026-04-08T10:56:56.154Z</time></trkpt><trkpt lat="44.2828099" lon="11.8246106"><ele>96.66666666666667</ele><time>2026-04-08T10:56:57.165Z</time></trkpt><trkpt lat="44.2828949" lon="11.8248701"><ele>96.33333333333334</ele><time>2026-04-08T10:56:58.167Z</time></trkpt><trkpt lat="44.2829871" lon="11.8251104"><ele>96.0</ele><time>2026-04-08T10:56:59.155Z</time></trkpt><trkpt lat="44.2830827" lon="11.8253259"><ele>94.0</ele><time>2026-04-08T10:57:00.164Z</time></trkpt><trkpt lat="44.2831754" lon="11.8255347"><ele>92.0</ele><time>2026-04-08T10:57:01.162Z</time></trkpt><trkpt lat="44.2832757" lon="11.8257538"><ele>90.0</ele><time>2026-04-08T10:57:02.158Z</time></trkpt><trkpt lat="44.2833728" lon="11.8259802"><ele>89.66666666666667</ele><time>2026-04-08T10:57:03.154Z</time></trkpt><trkpt lat="44.2834671" lon="11.8262043"><ele>89.33333333333334</ele><time>2026-04-08T10:57:04.141Z</time></trkpt><trkpt lat="44.283553" lon="11.826414"><ele>89.0</ele><time>2026-04-08T10:57:05.157Z</time></trkpt><trkpt lat="44.2836349" lon="11.8266098"><ele>89.0</ele><time>2026-04-08T10:57:06.156Z</time></trkpt><trkpt lat="44.283714" lon="11.8267946"><ele>89.0</ele><time>2026-04-08T10:57:07.173Z</time></trkpt><trkpt lat="44.283782" lon="11.82698"><ele>89.0</ele><time>2026-04-08T10:57:08.165Z</time></trkpt><trkpt lat="44.283844" lon="11.8271793"><ele>88.33333333333334</ele><time>2026-04-08T10:57:09.161Z</time></trkpt><trkpt lat="44.2838957" lon="11.8273987"><ele>87.66666666666667</ele><time>2026-04-08T10:57:10.147Z</time></trkpt><trkpt lat="44.2839455" lon="11.827648"><ele>87.0</ele><time>2026-04-08T10:57:11.144Z</time></trkpt><trkpt lat="44.2839924" lon="11.8279293"><ele>85.66666666666667</ele><time>2026-04-08T10:57:12.158Z</time></trkpt><trkpt lat="44.2840371" lon="11.8281993"><ele>84.33333333333334</ele><time>2026-04-08T10:57:13.156Z</time></trkpt><trkpt lat="44.2840793" lon="11.8284377"><ele>83.0</ele><time>2026-04-08T10:57:14.173Z</time></trkpt><trkpt lat="44.2841193" lon="11.8286601"><ele>82.75</ele><time>2026-04-08T10:57:15.156Z</time></trkpt><trkpt lat="44.2841549" lon="11.8288763"><ele>82.5</ele><time>2026-04-08T10:57:16.141Z</time></trkpt><trkpt lat="44.284189" lon="11.8290781"><ele>82.25</ele><time>2026-04-08T10:57:17.164Z</time></trkpt><trkpt lat="44.284219" lon="11.8292667"><ele>82.0</ele><time>2026-04-08T10:57:18.167Z</time></trkpt><trkpt lat="44.2842503" lon="11.8294448"><ele>81.25</ele><time>2026-04-08T10:57:19.152Z</time></trkpt><trkpt lat="44.2842839" lon="11.829613"><ele>80.5</ele><time>2026-04-08T10:57:20.146Z</time></trkpt><trkpt lat="44.2843323" lon="11.8297565"><ele>79.75</ele><time>2026-04-08T10:57:21.168Z</time></trkpt><trkpt lat="44.2844017" lon="11.8299052"><ele>79.0</ele><time>2026-04-08T10:57:22.154Z</time></trkpt><trkpt lat="44.2844876" lon="11.8300606"><ele>77.5</ele><time>2026-04-08T10:57:23.15Z</time></trkpt><trkpt lat="44.2845826" lon="11.8302181"><ele>76.0</ele><time>2026-04-08T10:57:24.138Z</time></trkpt><trkpt lat="44.2846777" lon="11.830377"><ele>74.5</ele><time>2026-04-08T10:57:25.162Z</time></trkpt><trkpt lat="44.2847621" lon="11.8305228"><ele>73.0</ele><time>2026-04-08T10:57:26.151Z</time></trkpt><trkpt lat="44.2848426" lon="11.8306657"><ele>73.0</ele><time>2026-04-08T10:57:27.153Z</time></trkpt><trkpt lat="44.284918" lon="11.8308082"><ele>73.0</ele><time>2026-04-08T10:57:28.145Z</time></trkpt><trkpt lat="44.2849895" lon="11.8309547"><ele>73.0</ele><time>2026-04-08T10:57:29.153Z</time></trkpt><trkpt lat="44.2850554" lon="11.8310985"><ele>73.0</ele><time>2026-04-08T10:57:30.143Z</time></trkpt><trkpt lat="44.2851075" lon="11.8312511"><ele>71.66666666666666</ele><time>2026-04-08T10:57:31.138Z</time></trkpt><trkpt lat="44.2851632" lon="11.8314325"><ele>70.33333333333333</ele><time>2026-04-08T10:57:32.16Z</time></trkpt><trkpt lat="44.2852269" lon="11.8316324"><ele>69.0</ele><time>2026-04-08T10:57:33.164Z</time></trkpt><trkpt lat="44.2852952" lon="11.8318352"><ele>67.0</ele><time>2026-04-08T10:57:34.16Z</time></trkpt><trkpt lat="44.2853638" lon="11.8320373"><ele>65.0</ele><time>2026-04-08T10:57:35.159Z</time></trkpt><trkpt lat="44.2854273" lon="11.8322356"><ele>63.0</ele><time>2026-04-08T10:57:36.15Z</time></trkpt><trkpt lat="44.2854848" lon="11.8324382"><ele>61.66666666666667</ele><time>2026-04-08T10:57:37.14Z</time></trkpt><trkpt lat="44.2855341" lon="11.8326443"><ele>60.333333333333336</ele><time>2026-04-08T10:57:38.157Z</time></trkpt><trkpt lat="44.2855845" lon="11.832846"><ele>59.0</ele><time>2026-04-08T10:57:39.15Z</time></trkpt><trkpt lat="44.2856432" lon="11.8330442"><ele>59.0</ele><time>2026-04-08T10:57:40.156Z</time></trkpt><trkpt lat="44.2857066" lon="11.833238"><ele>59.0</ele><time>2026-04-08T10:57:41.139Z</time></trkpt><trkpt lat="44.2857801" lon="11.833441"><ele>59.0</ele><time>2026-04-08T10:57:42.167Z</time></trkpt><trkpt lat="44.2858582" lon="11.8336464"><ele>58.66666666666667</ele><time>2026-04-08T10:57:43.147Z</time></trkpt><trkpt lat="44.2859283" lon="11.8338639"><ele>58.33333333333333</ele><time>2026-04-08T10:57:44.144Z</time></trkpt><trkpt lat="44.2859967" lon="11.8340988"><ele>58.0</ele><time>2026-04-08T10:57:45.15Z</time></trkpt><trkpt lat="44.2860661" lon="11.834344"><ele>58.0</ele><time>2026-04-08T10:57:46.15Z</time></trkpt><trkpt lat="44.2861332" lon="11.8345947"><ele>58.0</ele><time>2026-04-08T10:57:47.159Z</time></trkpt><trkpt lat="44.2861946" lon="11.8348194"><ele>58.0</ele><time>2026-04-08T10:57:48.14Z</time></trkpt><trkpt lat="44.2862574" lon="11.8350246"><ele>58.5</ele><time>2026-04-08T10:57:49.153Z</time></trkpt><trkpt lat="44.2863131" lon="11.8352058"><ele>59.0</ele><time>2026-04-08T10:57:50.15Z</time></trkpt><trkpt lat="44.2863537" lon="11.835371"><ele>59.5</ele><time>2026-04-08T10:57:51.148Z</time></trkpt><trkpt lat="44.2863833" lon="11.835542"><ele>60.0</ele><time>2026-04-08T10:57:52.158Z</time></trkpt><trkpt lat="44.286396" lon="11.8357239"><ele>60.0</ele><time>2026-04-08T10:57:53.156Z</time></trkpt><trkpt lat="44.2863933" lon="11.835925"><ele>60.0</ele><time>2026-04-08T10:57:54.161Z</time></trkpt><trkpt lat="44.2863754" lon="11.8361427"><ele>60.0</ele><time>2026-04-08T10:57:55.165Z</time></trkpt><trkpt lat="44.2863513" lon="11.8363658"><ele>59.75</ele><time>2026-04-08T10:57:56.151Z</time></trkpt><trkpt lat="44.2863218" lon="11.8365762"><ele>59.5</ele><time>2026-04-08T10:57:57.171Z</time></trkpt><trkpt lat="44.286294" lon="11.8367596"><ele>59.25</ele><time>2026-04-08T10:57:58.158Z</time></trkpt><trkpt lat="44.286262" lon="11.8369165"><ele>59.0</ele><time>2026-04-08T10:57:59.154Z</time></trkpt><trkpt lat="44.2862374" lon="11.837041"><ele>59.0</ele><time>2026-04-08T10:58:00.149Z</time></trkpt><trkpt lat="44.2862195" lon="11.837135"><ele>59.00000000000001</ele><time>2026-04-08T10:58:01.14Z</time></trkpt><trkpt lat="44.2861961" lon="11.8372192"><ele>59.00000000000001</ele><time>2026-04-08T10:58:02.146Z</time></trkpt><trkpt lat="44.2861967" lon="11.8373792"><ele>59.0</ele><time>2026-04-08T10:58:04.163Z</time></trkpt><trkpt lat="44.2862181" lon="11.8374926"><ele>59.0</ele><time>2026-04-08T10:58:05.171Z</time></trkpt><trkpt lat="44.2862515" lon="11.8376496"><ele>58.75</ele><time>2026-04-08T10:58:06.151Z</time></trkpt><trkpt lat="44.2862886" lon="11.8378213"><ele>58.5</ele><time>2026-04-08T10:58:07.161Z</time></trkpt><trkpt lat="44.2863244" lon="11.8379863"><ele>58.25</ele><time>2026-04-08T10:58:08.146Z</time></trkpt><trkpt lat="44.2863612" lon="11.8381282"><ele>58.0</ele><time>2026-04-08T10:58:09.153Z</time></trkpt><trkpt lat="44.2863993" lon="11.838242"><ele>58.2</ele><time>2026-04-08T10:58:10.14Z</time></trkpt><trkpt lat="44.286445" lon="11.8383393"><ele>58.4</ele><time>2026-04-08T10:58:11.153Z</time></trkpt><trkpt lat="44.2865131" lon="11.8384245"><ele>58.60000000000001</ele><time>2026-04-08T10:58:12.132Z</time></trkpt><trkpt lat="44.2866018" lon="11.8385047"><ele>58.800000000000004</ele><time>2026-04-08T10:58:13.15Z</time></trkpt><trkpt lat="44.2866981" lon="11.8385861"><ele>59.0</ele><time>2026-04-08T10:58:14.153Z</time></trkpt><trkpt lat="44.2867903" lon="11.8386641"><ele>58.66666666666667</ele><time>2026-04-08T10:58:15.159Z</time></trkpt><trkpt lat="44.2868754" lon="11.8387299"><ele>58.333333333333336</ele><time>2026-04-08T10:58:16.165Z</time></trkpt><trkpt lat="44.2869533" lon="11.8387946"><ele>58.0</ele><time>2026-04-08T10:58:17.173Z</time></trkpt><trkpt lat="44.2870261" lon="11.8388524"><ele>57.66666666666667</ele><time>2026-04-08T10:58:18.152Z</time></trkpt><trkpt lat="44.2870926" lon="11.8389066"><ele>57.333333333333336</ele><time>2026-04-08T10:58:19.147Z</time></trkpt><trkpt lat="44.2871538" lon="11.8389559"><ele>57.0</ele><time>2026-04-08T10:58:20.133Z</time></trkpt><trkpt lat="44.2872241" lon="11.8390316"><ele>57.0</ele><time>2026-04-08T10:58:22.165Z</time></trkpt><trkpt lat="44.2872399" lon="11.8391329"><ele>57.0</ele><time>2026-04-08T10:58:26.146Z</time></trkpt><trkpt lat="44.2872029" lon="11.839241"><ele>57.0</ele><time>2026-04-08T10:58:46.133Z</time></trkpt><trkpt lat="44.2871442" lon="11.8393062"><ele>57.0</ele><time>2026-04-08T10:58:47.155Z</time></trkpt><trkpt lat="44.287054" lon="11.8393841"><ele>57.0</ele><time>2026-04-08T10:58:48.166Z</time></trkpt><trkpt lat="44.2869443" lon="11.8394902"><ele>56.33333333333333</ele><time>2026-04-08T10:58:49.167Z</time></trkpt><trkpt lat="44.2868136" lon="11.8396237"><ele>55.666666666666664</ele><time>2026-04-08T10:58:50.158Z</time></trkpt><trkpt lat="44.286669" lon="11.8397722"><ele>55.0</ele><time>2026-04-08T10:58:51.162Z</time></trkpt><trkpt lat="44.2865163" lon="11.8399333"><ele>55.33333333333333</ele><time>2026-04-08T10:58:52.169Z</time></trkpt><trkpt lat="44.286362" lon="11.8400878"><ele>55.66666666666667</ele><time>2026-04-08T10:58:53.162Z</time></trkpt><trkpt lat="44.2862152" lon="11.840226"><ele>56.0</ele><time>2026-04-08T10:58:54.143Z</time></trkpt><trkpt lat="44.2860755" lon="11.840355"><ele>55.0</ele><time>2026-04-08T10:58:55.154Z</time></trkpt><trkpt lat="44.2859287" lon="11.8404904"><ele>54.0</ele><time>2026-04-08T10:58:56.159Z</time></trkpt><trkpt lat="44.2857836" lon="11.8406307"><ele>53.0</ele><time>2026-04-08T10:58:57.154Z</time></trkpt><trkpt lat="44.2856413" lon="11.84077"><ele>52.66666666666667</ele><time>2026-04-08T10:58:58.154Z</time></trkpt><trkpt lat="44.2854976" lon="11.8409091"><ele>52.33333333333333</ele><time>2026-04-08T10:58:59.152Z</time></trkpt><trkpt lat="44.2853544" lon="11.8410422"><ele>52.0</ele><time>2026-04-08T10:59:00.168Z</time></trkpt><trkpt lat="44.2852105" lon="11.8411769"><ele>51.666666666666664</ele><time>2026-04-08T10:59:01.153Z</time></trkpt><trkpt lat="44.2850691" lon="11.8413085"><ele>51.33333333333333</ele><time>2026-04-08T10:59:02.151Z</time></trkpt><trkpt lat="44.2849275" lon="11.8414431"><ele>51.0</ele><time>2026-04-08T10:59:03.153Z</time></trkpt><trkpt lat="44.2847915" lon="11.8415745"><ele>51.33333333333333</ele><time>2026-04-08T10:59:04.15Z</time></trkpt><trkpt lat="44.2846598" lon="11.8417003"><ele>51.666666666666664</ele><time>2026-04-08T10:59:05.162Z</time></trkpt><trkpt lat="44.2845311" lon="11.8418288"><ele>52.0</ele><time>2026-04-08T10:59:06.152Z</time></trkpt><trkpt lat="44.2843851" lon="11.8419769"><ele>52.0</ele><time>2026-04-08T10:59:07.157Z</time></trkpt><trkpt lat="44.2842006" lon="11.8421444"><ele>52.0</ele><time>2026-04-08T10:59:08.163Z</time></trkpt><trkpt lat="44.28401" lon="11.8423252"><ele>53.0</ele><time>2026-04-08T10:59:09.164Z</time></trkpt><trkpt lat="44.2838166" lon="11.8424925"><ele>54.0</ele><time>2026-04-08T10:59:10.152Z</time></trkpt><trkpt lat="44.2836195" lon="11.8426368"><ele>54.0</ele><time>2026-04-08T10:59:11.145Z</time></trkpt><trkpt lat="44.2834448" lon="11.8427571"><ele>54.0</ele><time>2026-04-08T10:59:12.16Z</time></trkpt><trkpt lat="44.283294" lon="11.8428646"><ele>54.0</ele><time>2026-04-08T10:59:13.168Z</time></trkpt><trkpt lat="44.2831507" lon="11.8429622"><ele>55.75</ele><time>2026-04-08T10:59:14.164Z</time></trkpt><trkpt lat="44.283016" lon="11.8430635"><ele>57.5</ele><time>2026-04-08T10:59:15.154Z</time></trkpt><trkpt lat="44.2828891" lon="11.8431626"><ele>59.25</ele><time>2026-04-08T10:59:16.129Z</time></trkpt><trkpt lat="44.2827707" lon="11.8432603"><ele>61.0</ele><time>2026-04-08T10:59:17.15Z</time></trkpt><trkpt lat="44.2826519" lon="11.8433538"><ele>61.0</ele><time>2026-04-08T10:59:18.158Z</time></trkpt><trkpt lat="44.2825293" lon="11.8434526"><ele>61.0</ele><time>2026-04-08T10:59:19.159Z</time></trkpt><trkpt lat="44.2824065" lon="11.8435537"><ele>61.0</ele><time>2026-04-08T10:59:20.164Z</time></trkpt><trkpt lat="44.2822834" lon="11.843657"><ele>61.0</ele><time>2026-04-08T10:59:21.145Z</time></trkpt><trkpt lat="44.28216" lon="11.8437594"><ele>61.33333333333333</ele><time>2026-04-08T10:59:22.151Z</time></trkpt><trkpt lat="44.28204" lon="11.8438842"><ele>61.66666666666667</ele><time>2026-04-08T10:59:23.16Z</time></trkpt><trkpt lat="44.281918" lon="11.8440426"><ele>62.0</ele><time>2026-04-08T10:59:24.164Z</time></trkpt><trkpt lat="44.2817915" lon="11.8442344"><ele>60.333333333333336</ele><time>2026-04-08T10:59:25.156Z</time></trkpt><trkpt lat="44.2816696" lon="11.8444314"><ele>58.66666666666667</ele><time>2026-04-08T10:59:26.149Z</time></trkpt><trkpt lat="44.281553" lon="11.8446101"><ele>57.0</ele><time>2026-04-08T10:59:27.144Z</time></trkpt><trkpt lat="44.2814356" lon="11.8447743"><ele>57.0</ele><time>2026-04-08T10:59:28.151Z</time></trkpt><trkpt lat="44.2813213" lon="11.8449172"><ele>57.0</ele><time>2026-04-08T10:59:29.158Z</time></trkpt><trkpt lat="44.2812055" lon="11.8450607"><ele>57.0</ele><time>2026-04-08T10:59:30.139Z</time></trkpt><trkpt lat="44.281091" lon="11.8451829"><ele>55.66666666666667</ele><time>2026-04-08T10:59:31.154Z</time></trkpt><trkpt lat="44.2809742" lon="11.845302"><ele>54.333333333333336</ele><time>2026-04-08T10:59:32.17Z</time></trkpt><trkpt lat="44.2808459" lon="11.8454227"><ele>53.0</ele><time>2026-04-08T10:59:33.162Z</time></trkpt><trkpt lat="44.2807082" lon="11.8455472"><ele>53.333333333333336</ele><time>2026-04-08T10:59:34.157Z</time></trkpt><trkpt lat="44.2805572" lon="11.8456785"><ele>53.66666666666667</ele><time>2026-04-08T10:59:35.167Z</time></trkpt><trkpt lat="44.2804116" lon="11.8458155"><ele>54.0</ele><time>2026-04-08T10:59:36.164Z</time></trkpt><trkpt lat="44.2802654" lon="11.8459559"><ele>53.0</ele><time>2026-04-08T10:59:37.161Z</time></trkpt><trkpt lat="44.2801272" lon="11.8461023"><ele>52.0</ele><time>2026-04-08T10:59:38.147Z</time></trkpt><trkpt lat="44.2799967" lon="11.8462394"><ele>51.0</ele><time>2026-04-08T10:59:39.166Z</time></trkpt><trkpt lat="44.2798806" lon="11.8463762"><ele>51.0</ele><time>2026-04-08T10:59:40.158Z</time></trkpt><trkpt lat="44.2797854" lon="11.8465281"><ele>51.0</ele><time>2026-04-08T10:59:41.155Z</time></trkpt><trkpt lat="44.2796986" lon="11.8466999"><ele>51.0</ele><time>2026-04-08T10:59:42.156Z</time></trkpt><trkpt lat="44.2796205" lon="11.8468925"><ele>51.33333333333333</ele><time>2026-04-08T10:59:43.162Z</time></trkpt><trkpt lat="44.2795422" lon="11.8470934"><ele>51.666666666666664</ele><time>2026-04-08T10:59:44.148Z</time></trkpt><trkpt lat="44.2794706" lon="11.8472927"><ele>52.0</ele><time>2026-04-08T10:59:45.156Z</time></trkpt><trkpt lat="44.2794105" lon="11.8474781"><ele>51.75</ele><time>2026-04-08T10:59:46.167Z</time></trkpt><trkpt lat="44.2793461" lon="11.8476533"><ele>51.5</ele><time>2026-04-08T10:59:47.153Z</time></trkpt><trkpt lat="44.2792888" lon="11.8478379"><ele>51.25</ele><time>2026-04-08T10:59:48.153Z</time></trkpt><trkpt lat="44.2792299" lon="11.8480267"><ele>51.0</ele><time>2026-04-08T10:59:49.14Z</time></trkpt><trkpt lat="44.2791792" lon="11.8482117"><ele>51.0</ele><time>2026-04-08T10:59:50.151Z</time></trkpt><trkpt lat="44.2791286" lon="11.8483919"><ele>51.0</ele><time>2026-04-08T10:59:51.171Z</time></trkpt><trkpt lat="44.2790799" lon="11.8485616"><ele>51.0</ele><time>2026-04-08T10:59:52.148Z</time></trkpt><trkpt lat="44.2790331" lon="11.8487252"><ele>51.0</ele><time>2026-04-08T10:59:53.167Z</time></trkpt><trkpt lat="44.2789862" lon="11.8488934"><ele>51.33333333333333</ele><time>2026-04-08T10:59:54.141Z</time></trkpt><trkpt lat="44.2789384" lon="11.8490681"><ele>51.666666666666664</ele><time>2026-04-08T10:59:55.16Z</time></trkpt><trkpt lat="44.2788852" lon="11.8492638"><ele>52.0</ele><time>2026-04-08T10:59:56.161Z</time></trkpt><trkpt lat="44.278829" lon="11.8494872"><ele>52.33333333333333</ele><time>2026-04-08T10:59:57.17Z</time></trkpt><trkpt lat="44.2787615" lon="11.8497331"><ele>52.66666666666667</ele><time>2026-04-08T10:59:58.154Z</time></trkpt><trkpt lat="44.2786911" lon="11.8500055"><ele>53.0</ele><time>2026-04-08T10:59:59.161Z</time></trkpt><trkpt lat="44.278614" lon="11.8502877"><ele>51.0</ele><time>2026-04-08T11:00:00.175Z</time></trkpt><trkpt lat="44.2785379" lon="11.8505551"><ele>49.0</ele><time>2026-04-08T11:00:01.149Z</time></trkpt><trkpt lat="44.2784652" lon="11.8508053"><ele>47.0</ele><time>2026-04-08T11:00:02.153Z</time></trkpt><trkpt lat="44.2783939" lon="11.8510459"><ele>44.666666666666664</ele><time>2026-04-08T11:00:03.15Z</time></trkpt><trkpt lat="44.2783252" lon="11.8512788"><ele>42.333333333333336</ele><time>2026-04-08T11:00:04.147Z</time></trkpt><trkpt lat="44.2782628" lon="11.8514964"><ele>40.0</ele><time>2026-04-08T11:00:05.157Z</time></trkpt><trkpt lat="44.2782078" lon="11.8516988"><ele>40.2</ele><time>2026-04-08T11:00:06.154Z</time></trkpt><trkpt lat="44.2781565" lon="11.8518663"><ele>40.4</ele><time>2026-04-08T11:00:07.145Z</time></trkpt><trkpt lat="44.27811" lon="11.8520168"><ele>40.599999999999994</ele><time>2026-04-08T11:00:08.142Z</time></trkpt><trkpt lat="44.2780654" lon="11.8521539"><ele>40.8</ele><time>2026-04-08T11:00:09.144Z</time></trkpt><trkpt lat="44.2780297" lon="11.8522617"><ele>41.0</ele><time>2026-04-08T11:00:10.142Z</time></trkpt><trkpt lat="44.277998" lon="11.852338"><ele>41.0</ele><time>2026-04-08T11:00:11.157Z</time></trkpt><trkpt lat="44.2779361" lon="11.8524554"><ele>41.0</ele><time>2026-04-08T11:00:13.145Z</time></trkpt><trkpt lat="44.2779024" lon="11.8525442"><ele>41.0</ele><time>2026-04-08T11:00:15.162Z</time></trkpt><trkpt lat="44.2778438" lon="11.8526125"><ele>41.0</ele><time>2026-04-08T11:00:17.14Z</time></trkpt><trkpt lat="44.2777759" lon="11.8526195"><ele>41.0</ele><time>2026-04-08T11:00:18.134Z</time></trkpt><trkpt lat="44.2777136" lon="11.8526447"><ele>41.0</ele><time>2026-04-08T11:00:19.161Z</time></trkpt><trkpt lat="44.2776286" lon="11.8527562"><ele>40.666666666666664</ele><time>2026-04-08T11:00:21.166Z</time></trkpt><trkpt lat="44.2776079" lon="11.8528541"><ele>40.33333333333333</ele><time>2026-04-08T11:00:22.155Z</time></trkpt><trkpt lat="44.2776266" lon="11.8529548"><ele>40.0</ele><time>2026-04-08T11:00:23.165Z</time></trkpt><trkpt lat="44.2776576" lon="11.8530666"><ele>39.666666666666664</ele><time>2026-04-08T11:00:24.153Z</time></trkpt><trkpt lat="44.2776986" lon="11.8531967"><ele>39.333333333333336</ele><time>2026-04-08T11:00:25.16Z</time></trkpt><trkpt lat="44.2777306" lon="11.8533328"><ele>39.0</ele><time>2026-04-08T11:00:26.143Z</time></trkpt><trkpt lat="44.2777586" lon="11.8534933"><ele>38.666666666666664</ele><time>2026-04-08T11:00:27.148Z</time></trkpt><trkpt lat="44.2777961" lon="11.8536812"><ele>38.33333333333333</ele><time>2026-04-08T11:00:28.138Z</time></trkpt><trkpt lat="44.2778467" lon="11.8539004"><ele>38.0</ele><time>2026-04-08T11:00:29.152Z</time></trkpt><trkpt lat="44.2778996" lon="11.8541179"><ele>38.33333333333333</ele><time>2026-04-08T11:00:30.157Z</time></trkpt><trkpt lat="44.2779511" lon="11.8543408"><ele>38.666666666666664</ele><time>2026-04-08T11:00:31.147Z</time></trkpt><trkpt lat="44.2780003" lon="11.8545688"><ele>39.0</ele><time>2026-04-08T11:00:32.165Z</time></trkpt><trkpt lat="44.2780475" lon="11.8547888"><ele>39.0</ele><time>2026-04-08T11:00:33.155Z</time></trkpt><trkpt lat="44.2780929" lon="11.8550051"><ele>39.0</ele><time>2026-04-08T11:00:34.148Z</time></trkpt><trkpt lat="44.27814" lon="11.8552205"><ele>39.0</ele><time>2026-04-08T11:00:35.165Z</time></trkpt><trkpt lat="44.2781833" lon="11.855428"><ele>39.333333333333336</ele><time>2026-04-08T11:00:36.149Z</time></trkpt><trkpt lat="44.2782282" lon="11.8556375"><ele>39.66666666666667</ele><time>2026-04-08T11:00:37.16Z</time></trkpt><trkpt lat="44.2782721" lon="11.8558426"><ele>40.0</ele><time>2026-04-08T11:00:38.158Z</time></trkpt><trkpt lat="44.2783158" lon="11.856047"><ele>40.0</ele><time>2026-04-08T11:00:39.169Z</time></trkpt><trkpt lat="44.2783611" lon="11.8562461"><ele>40.0</ele><time>2026-04-08T11:00:40.158Z</time></trkpt><trkpt lat="44.2784051" lon="11.8564467"><ele>40.0</ele><time>2026-04-08T11:00:41.165Z</time></trkpt><trkpt lat="44.2784479" lon="11.8566467"><ele>40.0</ele><time>2026-04-08T11:00:42.144Z</time></trkpt><trkpt lat="44.2784883" lon="11.8568483"><ele>39.75</ele><time>2026-04-08T11:00:43.16Z</time></trkpt><trkpt lat="44.2785268" lon="11.857044"><ele>39.5</ele><time>2026-04-08T11:00:44.153Z</time></trkpt><trkpt lat="44.2785633" lon="11.8572398"><ele>39.25</ele><time>2026-04-08T11:00:45.155Z</time></trkpt><trkpt lat="44.2786012" lon="11.8574334"><ele>39.0</ele><time>2026-04-08T11:00:46.15Z</time></trkpt><trkpt lat="44.278647" lon="11.8576306"><ele>39.666666666666664</ele><time>2026-04-08T11:00:47.16Z</time></trkpt><trkpt lat="44.2786907" lon="11.8578347"><ele>40.33333333333333</ele><time>2026-04-08T11:00:48.143Z</time></trkpt><trkpt lat="44.2787363" lon="11.8580473"><ele>41.0</ele><time>2026-04-08T11:00:49.148Z</time></trkpt><trkpt lat="44.2787805" lon="11.858263"><ele>41.666666666666664</ele><time>2026-04-08T11:00:50.155Z</time></trkpt><trkpt lat="44.2788231" lon="11.8584777"><ele>42.333333333333336</ele><time>2026-04-08T11:00:51.168Z</time></trkpt><trkpt lat="44.2788632" lon="11.8586789"><ele>43.0</ele><time>2026-04-08T11:00:52.147Z</time></trkpt><trkpt lat="44.2789019" lon="11.8588795"><ele>42.25</ele><time>2026-04-08T11:00:53.168Z</time></trkpt><trkpt lat="44.2789399" lon="11.859084"><ele>41.5</ele><time>2026-04-08T11:00:54.141Z</time></trkpt><trkpt lat="44.2789812" lon="11.8592826"><ele>40.75</ele><time>2026-04-08T11:00:55.141Z</time></trkpt><trkpt lat="44.2790199" lon="11.8594808"><ele>40.0</ele><time>2026-04-08T11:00:56.146Z</time></trkpt><trkpt lat="44.2790635" lon="11.859682"><ele>39.333333333333336</ele><time>2026-04-08T11:00:57.148Z</time></trkpt><trkpt lat="44.2791086" lon="11.8598872"><ele>38.666666666666664</ele><time>2026-04-08T11:00:58.142Z</time></trkpt><trkpt lat="44.2791484" lon="11.8601033"><ele>38.0</ele><time>2026-04-08T11:00:59.163Z</time></trkpt><trkpt lat="44.279194" lon="11.8603253"><ele>37.33333333333333</ele><time>2026-04-08T11:01:00.15Z</time></trkpt><trkpt lat="44.279244" lon="11.8605563"><ele>36.666666666666664</ele><time>2026-04-08T11:01:01.144Z</time></trkpt><trkpt lat="44.279288" lon="11.8607921"><ele>36.0</ele><time>2026-04-08T11:01:02.159Z</time></trkpt><trkpt lat="44.2793318" lon="11.8610149"><ele>36.0</ele><time>2026-04-08T11:01:03.149Z</time></trkpt><trkpt lat="44.2793764" lon="11.8612315"><ele>36.0</ele><time>2026-04-08T11:01:04.159Z</time></trkpt><trkpt lat="44.2794239" lon="11.861451"><ele>36.0</ele><time>2026-04-08T11:01:05.16Z</time></trkpt><trkpt lat="44.2794735" lon="11.8616721"><ele>36.25</ele><time>2026-04-08T11:01:06.147Z</time></trkpt><trkpt lat="44.2795173" lon="11.8618751"><ele>36.5</ele><time>2026-04-08T11:01:07.149Z</time></trkpt><trkpt lat="44.279552" lon="11.8620539"><ele>36.75</ele><time>2026-04-08T11:01:08.143Z</time></trkpt><trkpt lat="44.2795859" lon="11.8622188"><ele>37.0</ele><time>2026-04-08T11:01:09.151Z</time></trkpt><trkpt lat="44.279619" lon="11.8623778"><ele>37.0</ele><time>2026-04-08T11:01:10.154Z</time></trkpt><trkpt lat="44.2796459" lon="11.8625303"><ele>37.0</ele><time>2026-04-08T11:01:11.15Z</time></trkpt><trkpt lat="44.279678" lon="11.8626672"><ele>37.0</ele><time>2026-04-08T11:01:12.158Z</time></trkpt><trkpt lat="44.2797064" lon="11.8627982"><ele>37.0</ele><time>2026-04-08T11:01:13.154Z</time></trkpt><trkpt lat="44.2797291" lon="11.8629198"><ele>37.0</ele><time>2026-04-08T11:01:14.153Z</time></trkpt><trkpt lat="44.2797527" lon="11.8630332"><ele>37.0</ele><time>2026-04-08T11:01:15.156Z</time></trkpt><trkpt lat="44.2797752" lon="11.8631423"><ele>37.0</ele><time>2026-04-08T11:01:16.145Z</time></trkpt><trkpt lat="44.2797915" lon="11.8632445"><ele>37.0</ele><time>2026-04-08T11:01:17.156Z</time></trkpt><trkpt lat="44.279811" lon="11.8633396"><ele>37.0</ele><time>2026-04-08T11:01:18.15Z</time></trkpt><trkpt lat="44.2798265" lon="11.8634253"><ele>37.0</ele><time>2026-04-08T11:01:19.145Z</time></trkpt><trkpt lat="44.2798603" lon="11.8635795"><ele>37.0</ele><time>2026-04-08T11:01:21.151Z</time></trkpt><trkpt lat="44.2798695" lon="11.8636735"><ele>37.0</ele><time>2026-04-08T11:01:24.151Z</time></trkpt><trkpt lat="44.2798832" lon="11.8637815"><ele>37.0</ele><time>2026-04-08T11:01:30.156Z</time></trkpt><trkpt lat="44.2799104" lon="11.8638892"><ele>37.0</ele><time>2026-04-08T11:01:31.169Z</time></trkpt><trkpt lat="44.2799374" lon="11.8639894"><ele>37.0</ele><time>2026-04-08T11:01:32.164Z</time></trkpt><trkpt lat="44.279963" lon="11.8641"><ele>37.0</ele><time>2026-04-08T11:01:33.159Z</time></trkpt><trkpt lat="44.2799932" lon="11.8642313"><ele>37.0</ele><time>2026-04-08T11:01:34.168Z</time></trkpt><trkpt lat="44.2800202" lon="11.8643681"><ele>36.75</ele><time>2026-04-08T11:01:35.153Z</time></trkpt><trkpt lat="44.2800539" lon="11.8645145"><ele>36.5</ele><time>2026-04-08T11:01:36.151Z</time></trkpt><trkpt lat="44.2800943" lon="11.8646721"><ele>36.25</ele><time>2026-04-08T11:01:37.168Z</time></trkpt><trkpt lat="44.2801372" lon="11.8648496"><ele>36.0</ele><time>2026-04-08T11:01:38.164Z</time></trkpt><trkpt lat="44.2801817" lon="11.8650375"><ele>36.25</ele><time>2026-04-08T11:01:39.157Z</time></trkpt><trkpt lat="44.2802166" lon="11.8652257"><ele>36.5</ele><time>2026-04-08T11:01:40.145Z</time></trkpt><trkpt lat="44.2802541" lon="11.8654039"><ele>36.75</ele><time>2026-04-08T11:01:41.142Z</time></trkpt><trkpt lat="44.2802915" lon="11.8655775"><ele>37.0</ele><time>2026-04-08T11:01:42.177Z</time></trkpt><trkpt lat="44.2803266" lon="11.8657482"><ele>37.0</ele><time>2026-04-08T11:01:43.175Z</time></trkpt><trkpt lat="44.2803639" lon="11.8659196"><ele>37.0</ele><time>2026-04-08T11:01:44.156Z</time></trkpt><trkpt lat="44.2803994" lon="11.8661046"><ele>37.0</ele><time>2026-04-08T11:01:45.155Z</time></trkpt><trkpt lat="44.2804336" lon="11.8662871"><ele>37.0</ele><time>2026-04-08T11:01:46.143Z</time></trkpt><trkpt lat="44.2804652" lon="11.8664701"><ele>36.75</ele><time>2026-04-08T11:01:47.155Z</time></trkpt><trkpt lat="44.2805003" lon="11.8666419"><ele>36.5</ele><time>2026-04-08T11:01:48.164Z</time></trkpt><trkpt lat="44.2805375" lon="11.866815"><ele>36.25</ele><time>2026-04-08T11:01:49.167Z</time></trkpt><trkpt lat="44.2805715" lon="11.8669882"><ele>36.0</ele><time>2026-04-08T11:01:50.14Z</time></trkpt><trkpt lat="44.2806072" lon="11.8671625"><ele>36.5</ele><time>2026-04-08T11:01:51.154Z</time></trkpt><trkpt lat="44.2806448" lon="11.8673372"><ele>37.0</ele><time>2026-04-08T11:01:52.156Z</time></trkpt><trkpt lat="44.280681" lon="11.8675155"><ele>37.5</ele><time>2026-04-08T11:01:53.15Z</time></trkpt><trkpt lat="44.280717" lon="11.8676948"><ele>38.0</ele><time>2026-04-08T11:01:54.157Z</time></trkpt><trkpt lat="44.2807528" lon="11.8678733"><ele>38.0</ele><time>2026-04-08T11:01:55.171Z</time></trkpt><trkpt lat="44.280787" lon="11.8680539"><ele>38.0</ele><time>2026-04-08T11:01:56.159Z</time></trkpt><trkpt lat="44.2808269" lon="11.868227"><ele>38.0</ele><time>2026-04-08T11:01:57.168Z</time></trkpt><trkpt lat="44.2808664" lon="11.8684048"><ele>38.0</ele><time>2026-04-08T11:01:58.14Z</time></trkpt><trkpt lat="44.2809024" lon="11.868585"><ele>37.75</ele><time>2026-04-08T11:01:59.135Z</time></trkpt><trkpt lat="44.2809439" lon="11.8687642"><ele>37.5</ele><time>2026-04-08T11:02:00.14Z</time></trkpt><trkpt lat="44.2809805" lon="11.8689393"><ele>37.25</ele><time>2026-04-08T11:02:01.134Z</time></trkpt><trkpt lat="44.2810135" lon="11.8691033"><ele>37.0</ele><time>2026-04-08T11:02:02.155Z</time></trkpt><trkpt lat="44.2810513" lon="11.8692642"><ele>37.0</ele><time>2026-04-08T11:02:03.159Z</time></trkpt><trkpt lat="44.2810818" lon="11.8694291"><ele>37.0</ele><time>2026-04-08T11:02:04.148Z</time></trkpt><trkpt lat="44.2811168" lon="11.8695954"><ele>37.0</ele><time>2026-04-08T11:02:05.166Z</time></trkpt><trkpt lat="44.2811496" lon="11.8697702"><ele>37.0</ele><time>2026-04-08T11:02:06.142Z</time></trkpt><trkpt lat="44.2811833" lon="11.8699356"><ele>37.0</ele><time>2026-04-08T11:02:07.154Z</time></trkpt><trkpt lat="44.2812165" lon="11.870099"><ele>37.0</ele><time>2026-04-08T11:02:08.143Z</time></trkpt><trkpt lat="44.2812515" lon="11.8702674"><ele>37.0</ele><time>2026-04-08T11:02:09.154Z</time></trkpt><trkpt lat="44.2812812" lon="11.8704314"><ele>37.0</ele><time>2026-04-08T11:02:10.158Z</time></trkpt><trkpt lat="44.2813142" lon="11.8705872"><ele>37.4</ele><time>2026-04-08T11:02:11.16Z</time></trkpt><trkpt lat="44.281345" lon="11.8707441"><ele>37.800000000000004</ele><time>2026-04-08T11:02:12.154Z</time></trkpt><trkpt lat="44.2813764" lon="11.870891"><ele>38.2</ele><time>2026-04-08T11:02:13.153Z</time></trkpt><trkpt lat="44.2814084" lon="11.8710389"><ele>38.6</ele><time>2026-04-08T11:02:14.149Z</time></trkpt><trkpt lat="44.2814411" lon="11.8711814"><ele>39.0</ele><time>2026-04-08T11:02:15.167Z</time></trkpt><trkpt lat="44.2814772" lon="11.8713169"><ele>39.0</ele><time>2026-04-08T11:02:16.151Z</time></trkpt><trkpt lat="44.2815142" lon="11.8714498"><ele>39.0</ele><time>2026-04-08T11:02:17.163Z</time></trkpt><trkpt lat="44.2815498" lon="11.8715826"><ele>39.0</ele><time>2026-04-08T11:02:18.147Z</time></trkpt><trkpt lat="44.2815799" lon="11.8717214"><ele>39.0</ele><time>2026-04-08T11:02:19.152Z</time></trkpt><trkpt lat="44.2816018" lon="11.8718713"><ele>39.0</ele><time>2026-04-08T11:02:20.133Z</time></trkpt><trkpt lat="44.2816265" lon="11.872023"><ele>38.4</ele><time>2026-04-08T11:02:21.154Z</time></trkpt><trkpt lat="44.2816579" lon="11.8721655"><ele>37.8</ele><time>2026-04-08T11:02:22.138Z</time></trkpt><trkpt lat="44.2816838" lon="11.8723017"><ele>37.2</ele><time>2026-04-08T11:02:23.141Z</time></trkpt><trkpt lat="44.2817095" lon="11.8724224"><ele>36.6</ele><time>2026-04-08T11:02:24.156Z</time></trkpt><trkpt lat="44.2817292" lon="11.8725374"><ele>36.0</ele><time>2026-04-08T11:02:25.16Z</time></trkpt><trkpt lat="44.2817503" lon="11.8726475"><ele>35.4</ele><time>2026-04-08T11:02:26.143Z</time></trkpt><trkpt lat="44.281776" lon="11.872764"><ele>34.8</ele><time>2026-04-08T11:02:27.161Z</time></trkpt><trkpt lat="44.2818043" lon="11.8728927"><ele>34.199999999999996</ele><time>2026-04-08T11:02:28.162Z</time></trkpt><trkpt lat="44.28184" lon="11.8730258"><ele>33.6</ele><time>2026-04-08T11:02:29.147Z</time></trkpt><trkpt lat="44.2818724" lon="11.873153"><ele>33.0</ele><time>2026-04-08T11:02:30.161Z</time></trkpt><trkpt lat="44.2819034" lon="11.873283"><ele>33.0</ele><time>2026-04-08T11:02:31.147Z</time></trkpt><trkpt lat="44.2819327" lon="11.8734171"><ele>33.0</ele><time>2026-04-08T11:02:32.164Z</time></trkpt><trkpt lat="44.2819585" lon="11.8735412"><ele>33.0</ele><time>2026-04-08T11:02:33.156Z</time></trkpt><trkpt lat="44.2819832" lon="11.8736591"><ele>33.0</ele><time>2026-04-08T11:02:34.149Z</time></trkpt><trkpt lat="44.2820099" lon="11.8737805"><ele>33.0</ele><time>2026-04-08T11:02:35.164Z</time></trkpt><trkpt lat="44.2820428" lon="11.8738998"><ele>33.6</ele><time>2026-04-08T11:02:36.155Z</time></trkpt><trkpt lat="44.2820715" lon="11.8740293"><ele>34.199999999999996</ele><time>2026-04-08T11:02:37.141Z</time></trkpt><trkpt lat="44.2820988" lon="11.8741611"><ele>34.8</ele><time>2026-04-08T11:02:38.157Z</time></trkpt><trkpt lat="44.2821241" lon="11.8742921"><ele>35.4</ele><time>2026-04-08T11:02:39.17Z</time></trkpt><trkpt lat="44.2821514" lon="11.8744207"><ele>36.0</ele><time>2026-04-08T11:02:40.156Z</time></trkpt><trkpt lat="44.282177" lon="11.8745411"><ele>36.0</ele><time>2026-04-08T11:02:41.155Z</time></trkpt><trkpt lat="44.2822019" lon="11.8746453"><ele>36.0</ele><time>2026-04-08T11:02:42.162Z</time></trkpt><trkpt lat="44.2822319" lon="11.874805"><ele>36.0</ele><time>2026-04-08T11:02:44.147Z</time></trkpt><trkpt lat="44.2822621" lon="11.8749576"><ele>36.0</ele><time>2026-04-08T11:02:46.164Z</time></trkpt><trkpt lat="44.2822998" lon="11.8751416"><ele>36.0</ele><time>2026-04-08T11:02:48.163Z</time></trkpt><trkpt lat="44.2823273" lon="11.8752452"><ele>36.4</ele><time>2026-04-08T11:02:49.151Z</time></trkpt><trkpt lat="44.2823503" lon="11.8753501"><ele>36.8</ele><time>2026-04-08T11:02:50.159Z</time></trkpt><trkpt lat="44.2823664" lon="11.8754387"><ele>37.199999999999996</ele><time>2026-04-08T11:02:51.156Z</time></trkpt><trkpt lat="44.2823894" lon="11.8755922"><ele>37.6</ele><time>2026-04-08T11:02:53.161Z</time></trkpt><trkpt lat="44.2824241" lon="11.8757211"><ele>38.0</ele><time>2026-04-08T11:02:55.154Z</time></trkpt><trkpt lat="44.2824688" lon="11.8758826"><ele>38.0</ele><time>2026-04-08T11:02:57.15Z</time></trkpt><trkpt lat="44.2825142" lon="11.8760431"><ele>38.0</ele><time>2026-04-08T11:02:59.134Z</time></trkpt><trkpt lat="44.282539" lon="11.8761493"><ele>38.0</ele><time>2026-04-08T11:03:00.15Z</time></trkpt><trkpt lat="44.2825631" lon="11.8762577"><ele>38.0</ele><time>2026-04-08T11:03:01.144Z</time></trkpt><trkpt lat="44.2825805" lon="11.8763557"><ele>38.0</ele><time>2026-04-08T11:03:02.158Z</time></trkpt><trkpt lat="44.2826113" lon="11.8764909"><ele>38.0</ele><time>2026-04-08T11:03:04.159Z</time></trkpt><trkpt lat="44.2826173" lon="11.8765796"><ele>38.0</ele><time>2026-04-08T11:03:06.156Z</time></trkpt><trkpt lat="44.2826294" lon="11.8766701"><ele>38.0</ele><time>2026-04-08T11:03:08.156Z</time></trkpt><trkpt lat="44.282648" lon="11.8767613"><ele>38.0</ele><time>2026-04-08T11:03:10.162Z</time></trkpt><trkpt lat="44.2827052" lon="11.8768491"><ele>38.0</ele><time>2026-04-08T11:03:12.152Z</time></trkpt><trkpt lat="44.2828015" lon="11.8768671"><ele>38.0</ele><time>2026-04-08T11:03:14.15Z</time></trkpt><trkpt lat="44.2828621" lon="11.8768172"><ele>38.0</ele><time>2026-04-08T11:03:15.165Z</time></trkpt><trkpt lat="44.2829255" lon="11.8767647"><ele>38.0</ele><time>2026-04-08T11:03:16.148Z</time></trkpt><trkpt lat="44.2829989" lon="11.8767046"><ele>38.0</ele><time>2026-04-08T11:03:17.16Z</time></trkpt><trkpt lat="44.2830657" lon="11.8766411"><ele>38.0</ele><time>2026-04-08T11:03:18.147Z</time></trkpt><trkpt lat="44.2831278" lon="11.8765753"><ele>38.0</ele><time>2026-04-08T11:03:19.148Z</time></trkpt><trkpt lat="44.2831918" lon="11.8765188"><ele>38.0</ele><time>2026-04-08T11:03:20.166Z</time></trkpt><trkpt lat="44.2832547" lon="11.8764618"><ele>38.0</ele><time>2026-04-08T11:03:21.162Z</time></trkpt><trkpt lat="44.28332" lon="11.8764032"><ele>38.0</ele><time>2026-04-08T11:03:22.153Z</time></trkpt><trkpt lat="44.2833854" lon="11.8763435"><ele>38.0</ele><time>2026-04-08T11:03:23.16Z</time></trkpt><trkpt lat="44.2834511" lon="11.8762811"><ele>38.0</ele><time>2026-04-08T11:03:24.147Z</time></trkpt><trkpt lat="44.2835197" lon="11.876206"><ele>38.0</ele><time>2026-04-08T11:03:25.171Z</time></trkpt><trkpt lat="44.2835949" lon="11.8761358"><ele>38.0</ele><time>2026-04-08T11:03:26.152Z</time></trkpt><trkpt lat="44.2836701" lon="11.8760615"><ele>38.0</ele><time>2026-04-08T11:03:27.15Z</time></trkpt><trkpt lat="44.2837565" lon="11.8759861"><ele>38.0</ele><time>2026-04-08T11:03:28.153Z</time></trkpt><trkpt lat="44.2838643" lon="11.8758936"><ele>38.0</ele><time>2026-04-08T11:03:29.158Z</time></trkpt><trkpt lat="44.2839829" lon="11.8757899"><ele>38.0</ele><time>2026-04-08T11:03:30.152Z</time></trkpt><trkpt lat="44.2840918" lon="11.875693"><ele>38.4</ele><time>2026-04-08T11:03:31.151Z</time></trkpt><trkpt lat="44.2841785" lon="11.875602"><ele>38.8</ele><time>2026-04-08T11:03:32.16Z</time></trkpt><trkpt lat="44.2842691" lon="11.8755184"><ele>39.2</ele><time>2026-04-08T11:03:33.156Z</time></trkpt><trkpt lat="44.2843579" lon="11.875434"><ele>39.6</ele><time>2026-04-08T11:03:34.148Z</time></trkpt><trkpt lat="44.2844435" lon="11.8753497"><ele>40.0</ele><time>2026-04-08T11:03:35.158Z</time></trkpt><trkpt lat="44.2845363" lon="11.8752682"><ele>40.0</ele><time>2026-04-08T11:03:36.15Z</time></trkpt><trkpt lat="44.2846342" lon="11.8751792"><ele>40.0</ele><time>2026-04-08T11:03:37.151Z</time></trkpt><trkpt lat="44.2847272" lon="11.8750893"><ele>40.0</ele><time>2026-04-08T11:03:38.14Z</time></trkpt><trkpt lat="44.2848249" lon="11.8750066"><ele>40.0</ele><time>2026-04-08T11:03:39.168Z</time></trkpt><trkpt lat="44.2849196" lon="11.8749241"><ele>40.2</ele><time>2026-04-08T11:03:40.136Z</time></trkpt><trkpt lat="44.2850074" lon="11.8748388"><ele>40.4</ele><time>2026-04-08T11:03:41.147Z</time></trkpt><trkpt lat="44.2850958" lon="11.8747538"><ele>40.599999999999994</ele><time>2026-04-08T11:03:42.158Z</time></trkpt><trkpt lat="44.2851821" lon="11.8746744"><ele>40.8</ele><time>2026-04-08T11:03:43.148Z</time></trkpt><trkpt lat="44.2852625" lon="11.8745908"><ele>41.0</ele><time>2026-04-08T11:03:44.15Z</time></trkpt><trkpt lat="44.2853441" lon="11.8745149"><ele>41.0</ele><time>2026-04-08T11:03:45.157Z</time></trkpt><trkpt lat="44.2854265" lon="11.8744356"><ele>41.0</ele><time>2026-04-08T11:03:46.151Z</time></trkpt><trkpt lat="44.2855176" lon="11.8743466"><ele>41.0</ele><time>2026-04-08T11:03:47.167Z</time></trkpt><trkpt lat="44.2856099" lon="11.8742673"><ele>41.0</ele><time>2026-04-08T11:03:48.149Z</time></trkpt><trkpt lat="44.2856995" lon="11.8741837"><ele>41.0</ele><time>2026-04-08T11:03:49.153Z</time></trkpt><trkpt lat="44.2857836" lon="11.8741033"><ele>40.8</ele><time>2026-04-08T11:03:50.149Z</time></trkpt><trkpt lat="44.2858624" lon="11.8740342"><ele>40.599999999999994</ele><time>2026-04-08T11:03:51.165Z</time></trkpt><trkpt lat="44.28595" lon="11.8739553"><ele>40.4</ele><time>2026-04-08T11:03:52.159Z</time></trkpt><trkpt lat="44.2860516" lon="11.8738659"><ele>40.2</ele><time>2026-04-08T11:03:53.157Z</time></trkpt><trkpt lat="44.2861639" lon="11.8737701"><ele>40.0</ele><time>2026-04-08T11:03:54.151Z</time></trkpt><trkpt lat="44.2862788" lon="11.8736677"><ele>40.0</ele><time>2026-04-08T11:03:55.157Z</time></trkpt><trkpt lat="44.2863903" lon="11.8735646"><ele>40.0</ele><time>2026-04-08T11:03:56.149Z</time></trkpt><trkpt lat="44.2865027" lon="11.873457"><ele>40.0</ele><time>2026-04-08T11:03:57.155Z</time></trkpt><trkpt lat="44.2866171" lon="11.873354"><ele>40.0</ele><time>2026-04-08T11:03:58.163Z</time></trkpt><trkpt lat="44.286731" lon="11.873251"><ele>40.5</ele><time>2026-04-08T11:03:59.176Z</time></trkpt><trkpt lat="44.2868456" lon="11.8731465"><ele>41.0</ele><time>2026-04-08T11:04:00.152Z</time></trkpt><trkpt lat="44.2869629" lon="11.8730409"><ele>41.5</ele><time>2026-04-08T11:04:01.167Z</time></trkpt><trkpt lat="44.2870675" lon="11.872941"><ele>42.0</ele><time>2026-04-08T11:04:02.147Z</time></trkpt><trkpt lat="44.2871589" lon="11.8728559"><ele>42.0</ele><time>2026-04-08T11:04:03.155Z</time></trkpt><trkpt lat="44.2872203" lon="11.872801"><ele>42.0</ele><time>2026-04-08T11:04:04.132Z</time></trkpt><trkpt lat="44.2872891" lon="11.8727404"><ele>42.0</ele><time>2026-04-08T11:04:06.148Z</time></trkpt><trkpt lat="44.2873405" lon="11.8726674"><ele>42.0</ele><time>2026-04-08T11:04:08.147Z</time></trkpt><trkpt lat="44.287402" lon="11.8726137"><ele>42.0</ele><time>2026-04-08T11:04:13.147Z</time></trkpt><trkpt lat="44.2874651" lon="11.8725493"><ele>42.0</ele><time>2026-04-08T11:04:16.148Z</time></trkpt><trkpt lat="44.2875319" lon="11.8724887"><ele>42.0</ele><time>2026-04-08T11:04:20.157Z</time></trkpt><trkpt lat="44.2875864" lon="11.8724198"><ele>42.0</ele><time>2026-04-08T11:04:24.155Z</time></trkpt><trkpt lat="44.2876528" lon="11.8723711"><ele>42.0</ele><time>2026-04-08T11:04:30.145Z</time></trkpt><trkpt lat="44.2877312" lon="11.8723079"><ele>42.0</ele><time>2026-04-08T11:04:33.146Z</time></trkpt><trkpt lat="44.287795" lon="11.872259"><ele>42.0</ele><time>2026-04-08T11:04:35.147Z</time></trkpt><trkpt lat="44.2878487" lon="11.8722086"><ele>42.0</ele><time>2026-04-08T11:04:37.151Z</time></trkpt><trkpt lat="44.287921" lon="11.872142"><ele>42.0</ele><time>2026-04-08T11:04:40.152Z</time></trkpt><trkpt lat="44.2879786" lon="11.8720889"><ele>42.0</ele><time>2026-04-08T11:04:43.159Z</time></trkpt><trkpt lat="44.2880385" lon="11.8720228"><ele>42.0</ele><time>2026-04-08T11:04:49.147Z</time></trkpt><trkpt lat="44.2880966" lon="11.8719842"><ele>42.0</ele><time>2026-04-08T11:04:51.147Z</time></trkpt><trkpt lat="44.2882009" lon="11.8719461"><ele>42.0</ele><time>2026-04-08T11:04:53.16Z</time></trkpt><trkpt lat="44.2883348" lon="11.8719544"><ele>41.833333333333336</ele><time>2026-04-08T11:04:55.168Z</time></trkpt><trkpt lat="44.2884135" lon="11.8719703"><ele>41.666666666666664</ele><time>2026-04-08T11:04:56.151Z</time></trkpt><trkpt lat="44.2884881" lon="11.8720048"><ele>41.5</ele><time>2026-04-08T11:04:57.168Z</time></trkpt><trkpt lat="44.2885579" lon="11.8720541"><ele>41.33333333333333</ele><time>2026-04-08T11:04:58.154Z</time></trkpt><trkpt lat="44.2886257" lon="11.8721025"><ele>41.166666666666664</ele><time>2026-04-08T11:04:59.157Z</time></trkpt><trkpt lat="44.2886886" lon="11.8721515"><ele>41.0</ele><time>2026-04-08T11:05:00.15Z</time></trkpt><trkpt lat="44.2887482" lon="11.8722112"><ele>41.0</ele><time>2026-04-08T11:05:01.165Z</time></trkpt><trkpt lat="44.2888194" lon="11.8722809"><ele>41.0</ele><time>2026-04-08T11:05:02.15Z</time></trkpt><trkpt lat="44.2888953" lon="11.8723446"><ele>41.0</ele><time>2026-04-08T11:05:03.161Z</time></trkpt><trkpt lat="44.2889739" lon="11.8724043"><ele>41.0</ele><time>2026-04-08T11:05:04.143Z</time></trkpt><trkpt lat="44.2890503" lon="11.8724688"><ele>41.0</ele><time>2026-04-08T11:05:05.17Z</time></trkpt><trkpt lat="44.2891316" lon="11.8725374"><ele>41.0</ele><time>2026-04-08T11:05:06.148Z</time></trkpt><trkpt lat="44.2892181" lon="11.8726156"><ele>41.5</ele><time>2026-04-08T11:05:07.151Z</time></trkpt><trkpt lat="44.2893072" lon="11.8726912"><ele>42.0</ele><time>2026-04-08T11:05:08.149Z</time></trkpt><trkpt lat="44.2893853" lon="11.8727593"><ele>42.5</ele><time>2026-04-08T11:05:09.166Z</time></trkpt><trkpt lat="44.2894544" lon="11.8728126"><ele>43.0</ele><time>2026-04-08T11:05:10.163Z</time></trkpt><trkpt lat="44.2895111" lon="11.8728663"><ele>43.5</ele><time>2026-04-08T11:05:11.148Z</time></trkpt><trkpt lat="44.2895708" lon="11.8729147"><ele>44.0</ele><time>2026-04-08T11:05:12.149Z</time></trkpt><trkpt lat="44.2896217" lon="11.8729699"><ele>44.0</ele><time>2026-04-08T11:05:13.142Z</time></trkpt><trkpt lat="44.2897167" lon="11.8730462"><ele>44.0</ele><time>2026-04-08T11:05:15.159Z</time></trkpt><trkpt lat="44.2897889" lon="11.8731102"><ele>44.0</ele><time>2026-04-08T11:05:17.164Z</time></trkpt><trkpt lat="44.2898472" lon="11.8731492"><ele>44.0</ele><time>2026-04-08T11:05:20.152Z</time></trkpt><trkpt lat="44.2899414" lon="11.8731697"><ele>44.0</ele><time>2026-04-08T11:05:27.136Z</time></trkpt><trkpt lat="44.2900033" lon="11.8731499"><ele>44.0</ele><time>2026-04-08T11:05:29.138Z</time></trkpt><trkpt lat="44.2900624" lon="11.8730062"><ele>44.0</ele><time>2026-04-08T11:05:30.154Z</time></trkpt><trkpt lat="44.2901546" lon="11.8727654"><ele>44.0</ele><time>2026-04-08T11:05:31.156Z</time></trkpt><trkpt lat="44.2902414" lon="11.8725525"><ele>44.0</ele><time>2026-04-08T11:05:32.156Z</time></trkpt><trkpt lat="44.2903129" lon="11.8723634"><ele>44.0</ele><time>2026-04-08T11:05:33.151Z</time></trkpt><trkpt lat="44.2903764" lon="11.8721859"><ele>44.0</ele><time>2026-04-08T11:05:34.16Z</time></trkpt><trkpt lat="44.2904409" lon="11.872028"><ele>44.0</ele><time>2026-04-08T11:05:35.147Z</time></trkpt><trkpt lat="44.2905041" lon="11.8718833"><ele>44.0</ele><time>2026-04-08T11:05:36.159Z</time></trkpt><trkpt lat="44.2905514" lon="11.8717485"><ele>43.166666666666664</ele><time>2026-04-08T11:05:37.157Z</time></trkpt><trkpt lat="44.2905978" lon="11.8716397"><ele>42.33333333333333</ele><time>2026-04-08T11:05:38.163Z</time></trkpt><trkpt lat="44.2906398" lon="11.8715421"><ele>41.5</ele><time>2026-04-08T11:05:39.149Z</time></trkpt><trkpt lat="44.2906851" lon="11.8714596"><ele>40.666666666666664</ele><time>2026-04-08T11:05:41.149Z</time></trkpt><trkpt lat="44.2907376" lon="11.8713168"><ele>39.833333333333336</ele><time>2026-04-08T11:05:45.15Z</time></trkpt><trkpt lat="44.2907669" lon="11.8712068"><ele>39.0</ele><time>2026-04-08T11:05:46.146Z</time></trkpt><trkpt lat="44.2908085" lon="11.8710651"><ele>39.2</ele><time>2026-04-08T11:05:47.164Z</time></trkpt><trkpt lat="44.2908632" lon="11.8709109"><ele>39.4</ele><time>2026-04-08T11:05:48.136Z</time></trkpt><trkpt lat="44.2909203" lon="11.8707743"><ele>39.6</ele><time>2026-04-08T11:05:49.154Z</time></trkpt><trkpt lat="44.2909698" lon="11.8706513"><ele>39.8</ele><time>2026-04-08T11:05:50.144Z</time></trkpt><trkpt lat="44.2910195" lon="11.8705333"><ele>40.0</ele><time>2026-04-08T11:05:51.15Z</time></trkpt><trkpt lat="44.2910711" lon="11.8704152"><ele>40.0</ele><time>2026-04-08T11:05:52.157Z</time></trkpt><trkpt lat="44.2911186" lon="11.8702969"><ele>40.0</ele><time>2026-04-08T11:05:53.156Z</time></trkpt><trkpt lat="44.2911645" lon="11.8701851"><ele>40.0</ele><time>2026-04-08T11:05:54.146Z</time></trkpt><trkpt lat="44.2912103" lon="11.8700732"><ele>40.0</ele><time>2026-04-08T11:05:55.152Z</time></trkpt><trkpt lat="44.2912585" lon="11.869951"><ele>40.0</ele><time>2026-04-08T11:05:56.16Z</time></trkpt><trkpt lat="44.2913103" lon="11.8698317"><ele>39.8</ele><time>2026-04-08T11:05:57.159Z</time></trkpt><trkpt lat="44.2913566" lon="11.8697158"><ele>39.6</ele><time>2026-04-08T11:05:58.141Z</time></trkpt><trkpt lat="44.2913991" lon="11.8696124"><ele>39.4</ele><time>2026-04-08T11:05:59.155Z</time></trkpt><trkpt lat="44.2914469" lon="11.8695046"><ele>39.2</ele><time>2026-04-08T11:06:00.156Z</time></trkpt><trkpt lat="44.291495" lon="11.8693879"><ele>39.0</ele><time>2026-04-08T11:06:01.159Z</time></trkpt><trkpt lat="44.2915381" lon="11.8692687"><ele>39.0</ele><time>2026-04-08T11:06:02.164Z</time></trkpt><trkpt lat="44.2915765" lon="11.869159"><ele>39.0</ele><time>2026-04-08T11:06:03.152Z</time></trkpt><trkpt lat="44.2916136" lon="11.8690661"><ele>39.0</ele><time>2026-04-08T11:06:04.156Z</time></trkpt><trkpt lat="44.2916517" lon="11.8689741"><ele>39.0</ele><time>2026-04-08T11:06:05.154Z</time></trkpt><trkpt lat="44.2916908" lon="11.8688856"><ele>39.0</ele><time>2026-04-08T11:06:06.165Z</time></trkpt><trkpt lat="44.2917316" lon="11.868789"><ele>39.0</ele><time>2026-04-08T11:06:07.157Z</time></trkpt><trkpt lat="44.2917749" lon="11.8686914"><ele>39.0</ele><time>2026-04-08T11:06:08.15Z</time></trkpt><trkpt lat="44.2918139" lon="11.8685881"><ele>39.0</ele><time>2026-04-08T11:06:09.155Z</time></trkpt><trkpt lat="44.2918518" lon="11.8684799"><ele>39.0</ele><time>2026-04-08T11:06:10.158Z</time></trkpt><trkpt lat="44.291898" lon="11.8683763"><ele>39.0</ele><time>2026-04-08T11:06:11.173Z</time></trkpt><trkpt lat="44.2919509" lon="11.8682612"><ele>39.0</ele><time>2026-04-08T11:06:12.159Z</time></trkpt><trkpt lat="44.291998" lon="11.8681417"><ele>39.166666666666664</ele><time>2026-04-08T11:06:13.163Z</time></trkpt><trkpt lat="44.2920385" lon="11.8680328"><ele>39.333333333333336</ele><time>2026-04-08T11:06:14.165Z</time></trkpt><trkpt lat="44.2920785" lon="11.8679329"><ele>39.5</ele><time>2026-04-08T11:06:15.159Z</time></trkpt><trkpt lat="44.2921162" lon="11.8678389"><ele>39.66666666666667</ele><time>2026-04-08T11:06:16.158Z</time></trkpt><trkpt lat="44.2921553" lon="11.8677455"><ele>39.833333333333336</ele><time>2026-04-08T11:06:17.166Z</time></trkpt><trkpt lat="44.2921911" lon="11.8676585"><ele>40.0</ele><time>2026-04-08T11:06:18.156Z</time></trkpt><trkpt lat="44.292223" lon="11.8675768"><ele>40.0</ele><time>2026-04-08T11:06:19.157Z</time></trkpt><trkpt lat="44.2922824" lon="11.8674466"><ele>40.0</ele><time>2026-04-08T11:06:21.155Z</time></trkpt><trkpt lat="44.2923381" lon="11.8673364"><ele>40.0</ele><time>2026-04-08T11:06:23.152Z</time></trkpt><trkpt lat="44.2923815" lon="11.8672259"><ele>40.0</ele><time>2026-04-08T11:06:25.157Z</time></trkpt><trkpt lat="44.2924153" lon="11.867113"><ele>40.0</ele><time>2026-04-08T11:06:27.136Z</time></trkpt><trkpt lat="44.2924481" lon="11.8670007"><ele>40.0</ele><time>2026-04-08T11:06:29.151Z</time></trkpt><trkpt lat="44.29252" lon="11.8668513"><ele>40.0</ele><time>2026-04-08T11:06:31.164Z</time></trkpt><trkpt lat="44.2925604" lon="11.866763"><ele>40.0</ele><time>2026-04-08T11:06:32.148Z</time></trkpt><trkpt lat="44.2926008" lon="11.8666755"><ele>40.0</ele><time>2026-04-08T11:06:33.177Z</time></trkpt><trkpt lat="44.2926341" lon="11.8665898"><ele>40.0</ele><time>2026-04-08T11:06:34.161Z</time></trkpt><trkpt lat="44.2926702" lon="11.8664991"><ele>40.0</ele><time>2026-04-08T11:06:35.152Z</time></trkpt><trkpt lat="44.2927066" lon="11.8664049"><ele>40.333333333333336</ele><time>2026-04-08T11:06:36.162Z</time></trkpt><trkpt lat="44.2927488" lon="11.8663122"><ele>40.66666666666667</ele><time>2026-04-08T11:06:37.17Z</time></trkpt><trkpt lat="44.2927837" lon="11.8662239"><ele>41.0</ele><time>2026-04-08T11:06:38.159Z</time></trkpt><trkpt lat="44.2928336" lon="11.8660946"><ele>41.333333333333336</ele><time>2026-04-08T11:06:40.155Z</time></trkpt><trkpt lat="44.292873" lon="11.8659875"><ele>41.666666666666664</ele><time>2026-04-08T11:06:42.153Z</time></trkpt><trkpt lat="44.2929133" lon="11.8658996"><ele>42.0</ele><time>2026-04-08T11:06:44.159Z</time></trkpt><trkpt lat="44.2929594" lon="11.8657844"><ele>42.0</ele><time>2026-04-08T11:06:46.143Z</time></trkpt><trkpt lat="44.2930007" lon="11.8656717"><ele>42.0</ele><time>2026-04-08T11:06:48.144Z</time></trkpt><trkpt lat="44.2930392" lon="11.865602"><ele>42.0</ele><time>2026-04-08T11:06:49.172Z</time></trkpt><trkpt lat="44.2930788" lon="11.8655147"><ele>42.0</ele><time>2026-04-08T11:06:50.175Z</time></trkpt><trkpt lat="44.2931289" lon="11.8654127"><ele>42.0</ele><time>2026-04-08T11:06:51.156Z</time></trkpt><trkpt lat="44.2931755" lon="11.8653112"><ele>42.0</ele><time>2026-04-08T11:06:52.149Z</time></trkpt><trkpt lat="44.2932134" lon="11.8652241"><ele>41.714285714285715</ele><time>2026-04-08T11:06:53.17Z</time></trkpt><trkpt lat="44.2932467" lon="11.8651418"><ele>41.42857142857143</ele><time>2026-04-08T11:06:54.149Z</time></trkpt><trkpt lat="44.2932861" lon="11.8650484"><ele>41.14285714285714</ele><time>2026-04-08T11:06:55.164Z</time></trkpt><trkpt lat="44.293324" lon="11.8649416"><ele>40.85714285714286</ele><time>2026-04-08T11:06:56.167Z</time></trkpt><trkpt lat="44.2933587" lon="11.8648454"><ele>40.57142857142857</ele><time>2026-04-08T11:06:57.157Z</time></trkpt><trkpt lat="44.2933898" lon="11.8647631"><ele>40.285714285714285</ele><time>2026-04-08T11:06:58.148Z</time></trkpt><trkpt lat="44.293419" lon="11.8646763"><ele>40.0</ele><time>2026-04-08T11:06:59.156Z</time></trkpt><trkpt lat="44.2934521" lon="11.8645898"><ele>39.66666666666667</ele><time>2026-04-08T11:07:00.159Z</time></trkpt><trkpt lat="44.2935105" lon="11.8644426"><ele>39.333333333333336</ele><time>2026-04-08T11:07:02.149Z</time></trkpt><trkpt lat="44.2935491" lon="11.8643318"><ele>39.0</ele><time>2026-04-08T11:07:04.15Z</time></trkpt><trkpt lat="44.2935868" lon="11.8642241"><ele>38.666666666666664</ele><time>2026-04-08T11:07:10.162Z</time></trkpt><trkpt lat="44.2936251" lon="11.8641446"><ele>38.33333333333333</ele><time>2026-04-08T11:07:11.972Z</time></trkpt><trkpt lat="44.2936957" lon="11.8641065"><ele>38.0</ele><time>2026-04-08T11:07:13.158Z</time></trkpt><trkpt lat="44.293803" lon="11.8640496"><ele>37.8</ele><time>2026-04-08T11:07:15.161Z</time></trkpt><trkpt lat="44.2938607" lon="11.8639296"><ele>37.599999999999994</ele><time>2026-04-08T11:07:17.169Z</time></trkpt><trkpt lat="44.2938549" lon="11.8637635"><ele>37.400000000000006</ele><time>2026-04-08T11:07:19.149Z</time></trkpt><trkpt lat="44.2937771" lon="11.8636627"><ele>37.2</ele><time>2026-04-08T11:07:21.162Z</time></trkpt><trkpt lat="44.2936663" lon="11.8636951"><ele>37.0</ele><time>2026-04-08T11:07:23.149Z</time></trkpt><trkpt lat="44.2936185" lon="11.8637586"><ele>37.0</ele><time>2026-04-08T11:07:24.152Z</time></trkpt><trkpt lat="44.2935873" lon="11.8638508"><ele>37.0</ele><time>2026-04-08T11:07:25.14Z</time></trkpt><trkpt lat="44.2935839" lon="11.8639539"><ele>37.0</ele><time>2026-04-08T11:07:26.148Z</time></trkpt><trkpt lat="44.2935831" lon="11.8640817"><ele>37.0</ele><time>2026-04-08T11:07:27.137Z</time></trkpt><trkpt lat="44.2935596" lon="11.8642217"><ele>37.0</ele><time>2026-04-08T11:07:28.163Z</time></trkpt><trkpt lat="44.293512" lon="11.8643586"><ele>37.2</ele><time>2026-04-08T11:07:29.147Z</time></trkpt><trkpt lat="44.2934447" lon="11.8644915"><ele>37.400000000000006</ele><time>2026-04-08T11:07:30.158Z</time></trkpt><trkpt lat="44.2933783" lon="11.8646146"><ele>37.599999999999994</ele><time>2026-04-08T11:07:31.158Z</time></trkpt><trkpt lat="44.2933284" lon="11.8647318"><ele>37.8</ele><time>2026-04-08T11:07:32.153Z</time></trkpt><trkpt lat="44.2932778" lon="11.8648508"><ele>38.0</ele><time>2026-04-08T11:07:33.171Z</time></trkpt><trkpt lat="44.2932234" lon="11.8649863"><ele>38.5</ele><time>2026-04-08T11:07:34.163Z</time></trkpt><trkpt lat="44.2931533" lon="11.865147"><ele>39.0</ele><time>2026-04-08T11:07:35.157Z</time></trkpt><trkpt lat="44.2930901" lon="11.8653067"><ele>39.5</ele><time>2026-04-08T11:07:36.145Z</time></trkpt><trkpt lat="44.2930338" lon="11.8654469"><ele>40.0</ele><time>2026-04-08T11:07:37.145Z</time></trkpt><trkpt lat="44.292985" lon="11.8655702"><ele>40.333333333333336</ele><time>2026-04-08T11:07:38.142Z</time></trkpt><trkpt lat="44.2929413" lon="11.8656911"><ele>40.66666666666667</ele><time>2026-04-08T11:07:39.143Z</time></trkpt><trkpt lat="44.2929004" lon="11.8658021"><ele>41.0</ele><time>2026-04-08T11:07:40.144Z</time></trkpt><trkpt lat="44.2928595" lon="11.8659081"><ele>41.333333333333336</ele><time>2026-04-08T11:07:41.164Z</time></trkpt><trkpt lat="44.292821" lon="11.8660073"><ele>41.666666666666664</ele><time>2026-04-08T11:07:42.169Z</time></trkpt><trkpt lat="44.2927807" lon="11.8661086"><ele>42.0</ele><time>2026-04-08T11:07:43.174Z</time></trkpt><trkpt lat="44.2927395" lon="11.8662104"><ele>42.0</ele><time>2026-04-08T11:07:44.162Z</time></trkpt><trkpt lat="44.2926955" lon="11.8663079"><ele>42.0</ele><time>2026-04-08T11:07:45.162Z</time></trkpt><trkpt lat="44.2926543" lon="11.8663943"><ele>42.0</ele><time>2026-04-08T11:07:46.157Z</time></trkpt><trkpt lat="44.2926091" lon="11.8664625"><ele>42.0</ele><time>2026-04-08T11:07:47.166Z</time></trkpt><trkpt lat="44.2925596" lon="11.8665172"><ele>42.0</ele><time>2026-04-08T11:07:48.17Z</time></trkpt><trkpt lat="44.292504" lon="11.8665591"><ele>42.0</ele><time>2026-04-08T11:07:49.177Z</time></trkpt><trkpt lat="44.2924088" lon="11.8666585"><ele>41.666666666666664</ele><time>2026-04-08T11:07:51.151Z</time></trkpt><trkpt lat="44.2923831" lon="11.8668253"><ele>41.333333333333336</ele><time>2026-04-08T11:07:53.161Z</time></trkpt><trkpt lat="44.2923893" lon="11.8669275"><ele>41.0</ele><time>2026-04-08T11:07:54.141Z</time></trkpt><trkpt lat="44.2923869" lon="11.8670362"><ele>40.66666666666667</ele><time>2026-04-08T11:07:55.141Z</time></trkpt><trkpt lat="44.2923593" lon="11.8671475"><ele>40.333333333333336</ele><time>2026-04-08T11:07:56.16Z</time></trkpt><trkpt lat="44.2923236" lon="11.8672532"><ele>40.0</ele><time>2026-04-08T11:07:57.152Z</time></trkpt><trkpt lat="44.2922795" lon="11.8673532"><ele>40.0</ele><time>2026-04-08T11:07:58.139Z</time></trkpt><trkpt lat="44.2922301" lon="11.8674681"><ele>40.0</ele><time>2026-04-08T11:07:59.163Z</time></trkpt><trkpt lat="44.2921759" lon="11.8676089"><ele>40.0</ele><time>2026-04-08T11:08:00.172Z</time></trkpt><trkpt lat="44.2921146" lon="11.8677562"><ele>40.0</ele><time>2026-04-08T11:08:01.14Z</time></trkpt><trkpt lat="44.2920592" lon="11.8678881"><ele>40.0</ele><time>2026-04-08T11:08:02.148Z</time></trkpt><trkpt lat="44.2920071" lon="11.8680118"><ele>40.0</ele><time>2026-04-08T11:08:03.175Z</time></trkpt><trkpt lat="44.2919623" lon="11.8681188"><ele>40.0</ele><time>2026-04-08T11:08:04.161Z</time></trkpt><trkpt lat="44.2919236" lon="11.8682268"><ele>40.0</ele><time>2026-04-08T11:08:05.168Z</time></trkpt><trkpt lat="44.2918843" lon="11.8683205"><ele>40.0</ele><time>2026-04-08T11:08:06.159Z</time></trkpt><trkpt lat="44.2918485" lon="11.868407"><ele>40.0</ele><time>2026-04-08T11:08:07.16Z</time></trkpt><trkpt lat="44.2918187" lon="11.8684846"><ele>40.0</ele><time>2026-04-08T11:08:08.149Z</time></trkpt><trkpt lat="44.2917867" lon="11.8685646"><ele>39.8</ele><time>2026-04-08T11:08:09.159Z</time></trkpt><trkpt lat="44.2917495" lon="11.8686594"><ele>39.6</ele><time>2026-04-08T11:08:10.165Z</time></trkpt><trkpt lat="44.2917068" lon="11.868774"><ele>39.4</ele><time>2026-04-08T11:08:11.161Z</time></trkpt><trkpt lat="44.2916565" lon="11.8689042"><ele>39.2</ele><time>2026-04-08T11:08:12.154Z</time></trkpt><trkpt lat="44.2916068" lon="11.8690211"><ele>39.0</ele><time>2026-04-08T11:08:13.157Z</time></trkpt><trkpt lat="44.2915604" lon="11.8691197"><ele>39.0</ele><time>2026-04-08T11:08:14.151Z</time></trkpt><trkpt lat="44.2915226" lon="11.8692076"><ele>39.0</ele><time>2026-04-08T11:08:15.157Z</time></trkpt><trkpt lat="44.2914859" lon="11.8692944"><ele>39.0</ele><time>2026-04-08T11:08:16.162Z</time></trkpt><trkpt lat="44.2914513" lon="11.8693898"><ele>39.0</ele><time>2026-04-08T11:08:17.175Z</time></trkpt><trkpt lat="44.2914121" lon="11.8694905"><ele>39.0</ele><time>2026-04-08T11:08:18.149Z</time></trkpt><trkpt lat="44.2913652" lon="11.8695933"><ele>39.0</ele><time>2026-04-08T11:08:19.164Z</time></trkpt><trkpt lat="44.2913213" lon="11.8696948"><ele>39.166666666666664</ele><time>2026-04-08T11:08:20.148Z</time></trkpt><trkpt lat="44.29128" lon="11.8697943"><ele>39.333333333333336</ele><time>2026-04-08T11:08:21.151Z</time></trkpt><trkpt lat="44.2912406" lon="11.869886"><ele>39.5</ele><time>2026-04-08T11:08:22.14Z</time></trkpt><trkpt lat="44.2912014" lon="11.8699852"><ele>39.66666666666667</ele><time>2026-04-08T11:08:23.14Z</time></trkpt><trkpt lat="44.29116" lon="11.87009"><ele>39.833333333333336</ele><time>2026-04-08T11:08:24.135Z</time></trkpt><trkpt lat="44.2911124" lon="11.8702107"><ele>40.0</ele><time>2026-04-08T11:08:25.149Z</time></trkpt><trkpt lat="44.2910593" lon="11.8703446"><ele>40.0</ele><time>2026-04-08T11:08:26.132Z</time></trkpt><trkpt lat="44.2910057" lon="11.870486"><ele>40.0</ele><time>2026-04-08T11:08:27.139Z</time></trkpt><trkpt lat="44.290954" lon="11.8706207"><ele>40.0</ele><time>2026-04-08T11:08:28.157Z</time></trkpt><trkpt lat="44.2909022" lon="11.8707348"><ele>40.0</ele><time>2026-04-08T11:08:29.156Z</time></trkpt><trkpt lat="44.2908589" lon="11.8708461"><ele>40.0</ele><time>2026-04-08T11:08:30.15Z</time></trkpt><trkpt lat="44.290819" lon="11.870946"><ele>39.833333333333336</ele><time>2026-04-08T11:08:31.155Z</time></trkpt><trkpt lat="44.2907729" lon="11.8710461"><ele>39.66666666666667</ele><time>2026-04-08T11:08:33.171Z</time></trkpt><trkpt lat="44.2907377" lon="11.8711519"><ele>39.5</ele><time>2026-04-08T11:08:36.139Z</time></trkpt><trkpt lat="44.2906973" lon="11.8712241"><ele>39.333333333333336</ele><time>2026-04-08T11:08:38.145Z</time></trkpt><trkpt lat="44.2906599" lon="11.8713369"><ele>39.166666666666664</ele><time>2026-04-08T11:08:40.152Z</time></trkpt><trkpt lat="44.2907058" lon="11.8714391"><ele>39.0</ele><time>2026-04-08T11:08:43.137Z</time></trkpt><trkpt lat="44.290819" lon="11.871477"><ele>39.0</ele><time>2026-04-08T11:08:45.17Z</time></trkpt><trkpt lat="44.2908901" lon="11.8715216"><ele>39.0</ele><time>2026-04-08T11:08:46.153Z</time></trkpt><trkpt lat="44.2909593" lon="11.8715706"><ele>39.0</ele><time>2026-04-08T11:08:47.161Z</time></trkpt><trkpt lat="44.2910545" lon="11.8716184"><ele>39.0</ele><time>2026-04-08T11:08:49.16Z</time></trkpt><trkpt lat="44.2911412" lon="11.8715842"><ele>39.0</ele><time>2026-04-08T11:08:51.158Z</time></trkpt><trkpt lat="44.2911902" lon="11.8715165"><ele>39.0</ele><time>2026-04-08T11:08:52.158Z</time></trkpt><trkpt lat="44.2912403" lon="11.87143"><ele>39.0</ele><time>2026-04-08T11:08:53.159Z</time></trkpt><trkpt lat="44.2912929" lon="11.8713336"><ele>39.0</ele><time>2026-04-08T11:08:54.151Z</time></trkpt><trkpt lat="44.2913421" lon="11.8712315"><ele>39.0</ele><time>2026-04-08T11:08:55.164Z</time></trkpt><trkpt lat="44.2913831" lon="11.8711306"><ele>39.0</ele><time>2026-04-08T11:08:56.154Z</time></trkpt><trkpt lat="44.2914142" lon="11.8710383"><ele>39.0</ele><time>2026-04-08T11:08:57.153Z</time></trkpt><trkpt lat="44.2914657" lon="11.8709171"><ele>39.0</ele><time>2026-04-08T11:08:59.142Z</time></trkpt><trkpt lat="44.2914768" lon="11.8708063"><ele>39.166666666666664</ele><time>2026-04-08T11:09:02.163Z</time></trkpt><trkpt lat="44.2914303" lon="11.8707194"><ele>39.333333333333336</ele><time>2026-04-08T11:09:04.149Z</time></trkpt><trkpt lat="44.2913586" lon="11.8706577"><ele>39.5</ele><time>2026-04-08T11:09:06.153Z</time></trkpt><trkpt lat="44.2912893" lon="11.8705949"><ele>39.66666666666667</ele><time>2026-04-08T11:09:08.133Z</time></trkpt><trkpt lat="44.2912376" lon="11.8705322"><ele>39.833333333333336</ele><time>2026-04-08T11:09:10.152Z</time></trkpt><trkpt lat="44.2911657" lon="11.8704849"><ele>40.0</ele><time>2026-04-08T11:09:12.151Z</time></trkpt><trkpt lat="44.2911268" lon="11.8703939"><ele>40.0</ele><time>2026-04-08T11:09:15.16Z</time></trkpt><trkpt lat="44.2911615" lon="11.8702273"><ele>40.0</ele><time>2026-04-08T11:09:20.161Z</time></trkpt><trkpt lat="44.2911938" lon="11.8701304"><ele>40.0</ele><time>2026-04-08T11:09:21.151Z</time></trkpt><trkpt lat="44.2912326" lon="11.8700415"><ele>40.0</ele><time>2026-04-08T11:09:22.151Z</time></trkpt><trkpt lat="44.291265" lon="11.8699523"><ele>40.0</ele><time>2026-04-08T11:09:23.157Z</time></trkpt><trkpt lat="44.2912963" lon="11.8698648"><ele>40.0</ele><time>2026-04-08T11:09:24.167Z</time></trkpt><trkpt lat="44.291332" lon="11.8697818"><ele>39.833333333333336</ele><time>2026-04-08T11:09:25.154Z</time></trkpt><trkpt lat="44.291368" lon="11.8696975"><ele>39.66666666666667</ele><time>2026-04-08T11:09:26.153Z</time></trkpt><trkpt lat="44.2914046" lon="11.8696071"><ele>39.5</ele><time>2026-04-08T11:09:27.156Z</time></trkpt><trkpt lat="44.2914478" lon="11.8695067"><ele>39.333333333333336</ele><time>2026-04-08T11:09:28.151Z</time></trkpt><trkpt lat="44.2915008" lon="11.8693895"><ele>39.166666666666664</ele><time>2026-04-08T11:09:29.141Z</time></trkpt><trkpt lat="44.2915483" lon="11.8692631"><ele>39.0</ele><time>2026-04-08T11:09:30.16Z</time></trkpt><trkpt lat="44.2915981" lon="11.869142"><ele>39.0</ele><time>2026-04-08T11:09:31.143Z</time></trkpt><trkpt lat="44.2916495" lon="11.869017"><ele>39.0</ele><time>2026-04-08T11:09:32.132Z</time></trkpt><trkpt lat="44.2917041" lon="11.8688806"><ele>39.0</ele><time>2026-04-08T11:09:33.137Z</time></trkpt><trkpt lat="44.2917648" lon="11.8687361"><ele>39.0</ele><time>2026-04-08T11:09:34.134Z</time></trkpt><trkpt lat="44.2918239" lon="11.8685938"><ele>39.0</ele><time>2026-04-08T11:09:35.155Z</time></trkpt><trkpt lat="44.2918835" lon="11.8684532"><ele>39.0</ele><time>2026-04-08T11:09:36.168Z</time></trkpt><trkpt lat="44.2919376" lon="11.8683122"><ele>39.0</ele><time>2026-04-08T11:09:37.143Z</time></trkpt><trkpt lat="44.2919896" lon="11.8681896"><ele>39.0</ele><time>2026-04-08T11:09:38.131Z</time></trkpt><trkpt lat="44.2920289" lon="11.8680908"><ele>39.0</ele><time>2026-04-08T11:09:39.136Z</time></trkpt><trkpt lat="44.2920701" lon="11.8679874"><ele>39.142857142857146</ele><time>2026-04-08T11:09:40.127Z</time></trkpt><trkpt lat="44.2921158" lon="11.8678941"><ele>39.285714285714285</ele><time>2026-04-08T11:09:41.134Z</time></trkpt><trkpt lat="44.2921498" lon="11.8677959"><ele>39.42857142857143</ele><time>2026-04-08T11:09:42.132Z</time></trkpt><trkpt lat="44.292184" lon="11.8677122"><ele>39.57142857142857</ele><time>2026-04-08T11:09:43.134Z</time></trkpt><trkpt lat="44.2922138" lon="11.8676341"><ele>39.714285714285715</ele><time>2026-04-08T11:09:44.143Z</time></trkpt><trkpt lat="44.2922454" lon="11.8675564"><ele>39.857142857142854</ele><time>2026-04-08T11:09:45.165Z</time></trkpt><trkpt lat="44.2922812" lon="11.8674706"><ele>40.0</ele><time>2026-04-08T11:09:46.15Z</time></trkpt><trkpt lat="44.2923202" lon="11.8673849"><ele>40.0</ele><time>2026-04-08T11:09:47.133Z</time></trkpt><trkpt lat="44.2923578" lon="11.8672944"><ele>40.0</ele><time>2026-04-08T11:09:48.142Z</time></trkpt><trkpt lat="44.2923932" lon="11.8672018"><ele>40.0</ele><time>2026-04-08T11:09:49.136Z</time></trkpt><trkpt lat="44.2924262" lon="11.8671056"><ele>40.0</ele><time>2026-04-08T11:09:50.132Z</time></trkpt><trkpt lat="44.2924524" lon="11.8670175"><ele>40.0</ele><time>2026-04-08T11:09:51.134Z</time></trkpt><trkpt lat="44.2925115" lon="11.8668709"><ele>40.0</ele><time>2026-04-08T11:09:53.153Z</time></trkpt><trkpt lat="44.2925863" lon="11.8667233"><ele>40.333333333333336</ele><time>2026-04-08T11:09:55.146Z</time></trkpt><trkpt lat="44.2926196" lon="11.8666355"><ele>40.66666666666667</ele><time>2026-04-08T11:09:56.132Z</time></trkpt><trkpt lat="44.2926744" lon="11.8665039"><ele>41.0</ele><time>2026-04-08T11:09:58.15Z</time></trkpt><trkpt lat="44.2927172" lon="11.8664341"><ele>41.333333333333336</ele><time>2026-04-08T11:10:08.159Z</time></trkpt><trkpt lat="44.2927193" lon="11.8663304"><ele>41.666666666666664</ele><time>2026-04-08T11:10:24.159Z</time></trkpt><trkpt lat="44.292759" lon="11.8662449"><ele>42.0</ele><time>2026-04-08T11:10:26.153Z</time></trkpt><trkpt lat="44.2928221" lon="11.8661347"><ele>42.0</ele><time>2026-04-08T11:10:28.157Z</time></trkpt><trkpt lat="44.2928648" lon="11.8660392"><ele>42.0</ele><time>2026-04-08T11:10:30.15Z</time></trkpt><trkpt lat="44.2928996" lon="11.865964"><ele>42.0</ele><time>2026-04-08T11:10:32.16Z</time></trkpt><trkpt lat="44.2929346" lon="11.8658882"><ele>42.0</ele><time>2026-04-08T11:10:34.152Z</time></trkpt><trkpt lat="44.2929961" lon="11.8658213"><ele>42.0</ele><time>2026-04-08T11:10:38.14Z</time></trkpt><trkpt lat="44.2934668" lon="11.8650585"><ele>38.0</ele><time>2026-04-08T11:12:02.108Z</time></trkpt><trkpt lat="44.2933731" lon="11.8647688"><ele>38.0</ele><time>2026-04-08T11:12:05.124Z</time></trkpt><trkpt lat="44.2934178" lon="11.8647024"><ele>38.0</ele><time>2026-04-08T11:12:06.139Z</time></trkpt><trkpt lat="44.2934597" lon="11.8645932"><ele>38.0</ele><time>2026-04-08T11:12:08.128Z</time></trkpt></trkseg></trk></gpx>